<?xml version="1.0" encoding="UTF-8" standalone="no" ?>
<gpx xmlns="http://www.topografix.com/GPX/1/1" xmlns:xsi="http://www.w3.org/2001/XMLSchema-instance" xsi:schemaLocation="http://www.topografix.com/GPX/1/1 http://www.topografix.com/GPX/1/1/gpx.xsd" version="1.1" creator="VisuGPX - https://www.visugpx.com">
  <metadata>
    <name>64 - VTT - Abos - Laroin - Abos - Voie Verte</name>
    <desc><![CDATA[la piste n'est pas finie d'être goudronnée, c'est en cours.]]></desc>
  </metadata>
  <trk>
    <name><![CDATA[ACTIVE LOG 006]]></name>
    <trkseg>
      <trkpt lat="43.35813" lon="-0.56442">
        <ele>120.782837</ele>
        <time>2012-03-02T13:15:57Z</time>
      </trkpt>
      <trkpt lat="43.35813" lon="-0.56442">
        <ele>120.782837</ele>
        <time>2012-03-02T13:15:58Z</time>
      </trkpt>
      <trkpt lat="43.35811" lon="-0.5644">
        <ele>121.26355</ele>
        <time>2012-03-02T13:16:22Z</time>
      </trkpt>
      <trkpt lat="43.35812" lon="-0.56441">
        <ele>120.782837</ele>
        <time>2012-03-02T13:16:31Z</time>
      </trkpt>
      <trkpt lat="43.35825" lon="-0.56427">
        <ele>121.26355</ele>
        <time>2012-03-02T13:16:42Z</time>
      </trkpt>
      <trkpt lat="43.35826" lon="-0.56421">
        <ele>120.782837</ele>
        <time>2012-03-02T13:16:44Z</time>
      </trkpt>
      <trkpt lat="43.35826" lon="-0.56359">
        <ele>122.705444</ele>
        <time>2012-03-02T13:17:00Z</time>
      </trkpt>
      <trkpt lat="43.35835" lon="-0.56287">
        <ele>123.186157</ele>
        <time>2012-03-02T13:17:17Z</time>
      </trkpt>
      <trkpt lat="43.3585" lon="-0.56232">
        <ele>123.186157</ele>
        <time>2012-03-02T13:17:30Z</time>
      </trkpt>
      <trkpt lat="43.35892" lon="-0.56195">
        <ele>122.705444</ele>
        <time>2012-03-02T13:17:44Z</time>
      </trkpt>
      <trkpt lat="43.35959" lon="-0.56157">
        <ele>122.705444</ele>
        <time>2012-03-02T13:18:03Z</time>
      </trkpt>
      <trkpt lat="43.36021" lon="-0.56123">
        <ele>122.224731</ele>
        <time>2012-03-02T13:18:20Z</time>
      </trkpt>
      <trkpt lat="43.36084" lon="-0.56082">
        <ele>122.224731</ele>
        <time>2012-03-02T13:18:41Z</time>
      </trkpt>
      <trkpt lat="43.36109" lon="-0.56068">
        <ele>122.224731</ele>
        <time>2012-03-02T13:18:52Z</time>
      </trkpt>
      <trkpt lat="43.36183" lon="-0.56021">
        <ele>122.705444</ele>
        <time>2012-03-02T13:19:13Z</time>
      </trkpt>
      <trkpt lat="43.36284" lon="-0.55949">
        <ele>123.666748</ele>
        <time>2012-03-02T13:19:39Z</time>
      </trkpt>
      <trkpt lat="43.36378" lon="-0.55871">
        <ele>123.666748</ele>
        <time>2012-03-02T13:20:04Z</time>
      </trkpt>
      <trkpt lat="43.36485" lon="-0.55809">
        <ele>123.186157</ele>
        <time>2012-03-02T13:20:30Z</time>
      </trkpt>
      <trkpt lat="43.36571" lon="-0.55773">
        <ele>124.147339</ele>
        <time>2012-03-02T13:20:50Z</time>
      </trkpt>
      <trkpt lat="43.36653" lon="-0.55725">
        <ele>122.705444</ele>
        <time>2012-03-02T13:21:10Z</time>
      </trkpt>
      <trkpt lat="43.36684" lon="-0.55698">
        <ele>121.26355</ele>
        <time>2012-03-02T13:21:19Z</time>
      </trkpt>
      <trkpt lat="43.3668" lon="-0.5568">
        <ele>122.224731</ele>
        <time>2012-03-02T13:21:23Z</time>
      </trkpt>
      <trkpt lat="43.36656" lon="-0.55644">
        <ele>122.224731</ele>
        <time>2012-03-02T13:21:32Z</time>
      </trkpt>
      <trkpt lat="43.36595" lon="-0.55525">
        <ele>123.666748</ele>
        <time>2012-03-02T13:21:57Z</time>
      </trkpt>
      <trkpt lat="43.36556" lon="-0.55447">
        <ele>123.186157</ele>
        <time>2012-03-02T13:22:13Z</time>
      </trkpt>
      <trkpt lat="43.36492" lon="-0.55328">
        <ele>123.186157</ele>
        <time>2012-03-02T13:22:37Z</time>
      </trkpt>
      <trkpt lat="43.36426" lon="-0.55258">
        <ele>124.147339</ele>
        <time>2012-03-02T13:22:57Z</time>
      </trkpt>
      <trkpt lat="43.3642" lon="-0.5525">
        <ele>123.666748</ele>
        <time>2012-03-02T13:22:59Z</time>
      </trkpt>
      <trkpt lat="43.36356" lon="-0.55175">
        <ele>124.147339</ele>
        <time>2012-03-02T13:23:19Z</time>
      </trkpt>
      <trkpt lat="43.36312" lon="-0.55126">
        <ele>124.147339</ele>
        <time>2012-03-02T13:23:34Z</time>
      </trkpt>
      <trkpt lat="43.36273" lon="-0.55057">
        <ele>123.666748</ele>
        <time>2012-03-02T13:23:50Z</time>
      </trkpt>
      <trkpt lat="43.36259" lon="-0.55007">
        <ele>123.186157</ele>
        <time>2012-03-02T13:24:00Z</time>
      </trkpt>
      <trkpt lat="43.3626" lon="-0.54973">
        <ele>123.186157</ele>
        <time>2012-03-02T13:24:06Z</time>
      </trkpt>
      <trkpt lat="43.36263" lon="-0.54939">
        <ele>123.186157</ele>
        <time>2012-03-02T13:24:12Z</time>
      </trkpt>
      <trkpt lat="43.36263" lon="-0.54904">
        <ele>123.666748</ele>
        <time>2012-03-02T13:24:18Z</time>
      </trkpt>
      <trkpt lat="43.36252" lon="-0.54851">
        <ele>123.666748</ele>
        <time>2012-03-02T13:24:28Z</time>
      </trkpt>
      <trkpt lat="43.36219" lon="-0.54761">
        <ele>124.147339</ele>
        <time>2012-03-02T13:24:47Z</time>
      </trkpt>
      <trkpt lat="43.3621" lon="-0.54693">
        <ele>124.147339</ele>
        <time>2012-03-02T13:25:00Z</time>
      </trkpt>
      <trkpt lat="43.36209" lon="-0.54603">
        <ele>126.069946</ele>
        <time>2012-03-02T13:25:18Z</time>
      </trkpt>
      <trkpt lat="43.36199" lon="-0.54519">
        <ele>125.108765</ele>
        <time>2012-03-02T13:25:36Z</time>
      </trkpt>
      <trkpt lat="43.3617" lon="-0.54485">
        <ele>124.628052</ele>
        <time>2012-03-02T13:25:48Z</time>
      </trkpt>
      <trkpt lat="43.36131" lon="-0.54432">
        <ele>125.108765</ele>
        <time>2012-03-02T13:26:02Z</time>
      </trkpt>
      <trkpt lat="43.36075" lon="-0.54335">
        <ele>126.550659</ele>
        <time>2012-03-02T13:26:24Z</time>
      </trkpt>
      <trkpt lat="43.36033" lon="-0.54277">
        <ele>126.069946</ele>
        <time>2012-03-02T13:26:41Z</time>
      </trkpt>
      <trkpt lat="43.36003" lon="-0.54223">
        <ele>125.589355</ele>
        <time>2012-03-02T13:26:54Z</time>
      </trkpt>
      <trkpt lat="43.35946" lon="-0.54153">
        <ele>125.589355</ele>
        <time>2012-03-02T13:27:11Z</time>
      </trkpt>
      <trkpt lat="43.35902" lon="-0.54109">
        <ele>126.069946</ele>
        <time>2012-03-02T13:27:24Z</time>
      </trkpt>
      <trkpt lat="43.35884" lon="-0.54054">
        <ele>126.550659</ele>
        <time>2012-03-02T13:27:34Z</time>
      </trkpt>
      <trkpt lat="43.35863" lon="-0.53956">
        <ele>126.550659</ele>
        <time>2012-03-02T13:27:53Z</time>
      </trkpt>
      <trkpt lat="43.35829" lon="-0.53895">
        <ele>126.550659</ele>
        <time>2012-03-02T13:28:08Z</time>
      </trkpt>
      <trkpt lat="43.35791" lon="-0.53848">
        <ele>127.511963</ele>
        <time>2012-03-02T13:28:22Z</time>
      </trkpt>
      <trkpt lat="43.35782" lon="-0.53839">
        <ele>127.511963</ele>
        <time>2012-03-02T13:28:32Z</time>
      </trkpt>
      <trkpt lat="43.35782" lon="-0.5384">
        <ele>127.511963</ele>
        <time>2012-03-02T13:28:50Z</time>
      </trkpt>
      <trkpt lat="43.35781" lon="-0.5384">
        <ele>127.511963</ele>
        <time>2012-03-02T13:29:04Z</time>
      </trkpt>
      <trkpt lat="43.35762" lon="-0.538">
        <ele>127.992554</ele>
        <time>2012-03-02T13:29:17Z</time>
      </trkpt>
      <trkpt lat="43.35727" lon="-0.53738">
        <ele>127.511963</ele>
        <time>2012-03-02T13:29:32Z</time>
      </trkpt>
      <trkpt lat="43.35719" lon="-0.5372">
        <ele>127.992554</ele>
        <time>2012-03-02T13:29:36Z</time>
      </trkpt>
      <trkpt lat="43.35714" lon="-0.53698">
        <ele>127.511963</ele>
        <time>2012-03-02T13:29:40Z</time>
      </trkpt>
      <trkpt lat="43.35711" lon="-0.53657">
        <ele>128.473389</ele>
        <time>2012-03-02T13:29:47Z</time>
      </trkpt>
      <trkpt lat="43.35708" lon="-0.53622">
        <ele>128.473389</ele>
        <time>2012-03-02T13:29:53Z</time>
      </trkpt>
      <trkpt lat="43.35699" lon="-0.53524">
        <ele>127.511963</ele>
        <time>2012-03-02T13:30:10Z</time>
      </trkpt>
      <trkpt lat="43.35652" lon="-0.53416">
        <ele>127.992554</ele>
        <time>2012-03-02T13:30:30Z</time>
      </trkpt>
      <trkpt lat="43.356" lon="-0.53323">
        <ele>128.954102</ele>
        <time>2012-03-02T13:30:49Z</time>
      </trkpt>
      <trkpt lat="43.35562" lon="-0.53219">
        <ele>129.434692</ele>
        <time>2012-03-02T13:31:08Z</time>
      </trkpt>
      <trkpt lat="43.35538" lon="-0.53093">
        <ele>129.434692</ele>
        <time>2012-03-02T13:31:29Z</time>
      </trkpt>
      <trkpt lat="43.35511" lon="-0.5302">
        <ele>129.915283</ele>
        <time>2012-03-02T13:31:42Z</time>
      </trkpt>
      <trkpt lat="43.35507" lon="-0.5294">
        <ele>129.434692</ele>
        <time>2012-03-02T13:31:56Z</time>
      </trkpt>
      <trkpt lat="43.35507" lon="-0.52775">
        <ele>129.915283</ele>
        <time>2012-03-02T13:32:22Z</time>
      </trkpt>
      <trkpt lat="43.35484" lon="-0.52637">
        <ele>129.915283</ele>
        <time>2012-03-02T13:32:44Z</time>
      </trkpt>
      <trkpt lat="43.35475" lon="-0.52574">
        <ele>129.915283</ele>
        <time>2012-03-02T13:32:59Z</time>
      </trkpt>
      <trkpt lat="43.35475" lon="-0.52574">
        <ele>129.434692</ele>
        <time>2012-03-02T13:33:17Z</time>
      </trkpt>
      <trkpt lat="43.3547" lon="-0.52515">
        <ele>128.954102</ele>
        <time>2012-03-02T13:33:33Z</time>
      </trkpt>
      <trkpt lat="43.35468" lon="-0.52415">
        <ele>129.915283</ele>
        <time>2012-03-02T13:33:52Z</time>
      </trkpt>
      <trkpt lat="43.35486" lon="-0.52327">
        <ele>129.434692</ele>
        <time>2012-03-02T13:34:09Z</time>
      </trkpt>
      <trkpt lat="43.35508" lon="-0.52245">
        <ele>129.434692</ele>
        <time>2012-03-02T13:34:28Z</time>
      </trkpt>
      <trkpt lat="43.35544" lon="-0.52191">
        <ele>128.954102</ele>
        <time>2012-03-02T13:34:44Z</time>
      </trkpt>
      <trkpt lat="43.35588" lon="-0.52189">
        <ele>128.954102</ele>
        <time>2012-03-02T13:34:56Z</time>
      </trkpt>
      <trkpt lat="43.35621" lon="-0.52198">
        <ele>128.473389</ele>
        <time>2012-03-02T13:35:08Z</time>
      </trkpt>
      <trkpt lat="43.35644" lon="-0.52166">
        <ele>128.954102</ele>
        <time>2012-03-02T13:35:22Z</time>
      </trkpt>
      <trkpt lat="43.35648" lon="-0.52123">
        <ele>129.434692</ele>
        <time>2012-03-02T13:35:36Z</time>
      </trkpt>
      <trkpt lat="43.35649" lon="-0.52115">
        <ele>129.434692</ele>
        <time>2012-03-02T13:35:39Z</time>
      </trkpt>
      <trkpt lat="43.35648" lon="-0.52106">
        <ele>130.395996</ele>
        <time>2012-03-02T13:35:54Z</time>
      </trkpt>
      <trkpt lat="43.35648" lon="-0.52108">
        <ele>129.915283</ele>
        <time>2012-03-02T13:36:42Z</time>
      </trkpt>
      <trkpt lat="43.35646" lon="-0.52101">
        <ele>129.434692</ele>
        <time>2012-03-02T13:37:05Z</time>
      </trkpt>
      <trkpt lat="43.35631" lon="-0.5206">
        <ele>130.395996</ele>
        <time>2012-03-02T13:37:18Z</time>
      </trkpt>
      <trkpt lat="43.35604" lon="-0.51996">
        <ele>130.395996</ele>
        <time>2012-03-02T13:37:34Z</time>
      </trkpt>
      <trkpt lat="43.35576" lon="-0.5194">
        <ele>129.915283</ele>
        <time>2012-03-02T13:37:49Z</time>
      </trkpt>
      <trkpt lat="43.35575" lon="-0.51899">
        <ele>130.876709</ele>
        <time>2012-03-02T13:38:03Z</time>
      </trkpt>
      <trkpt lat="43.35603" lon="-0.51855">
        <ele>130.876709</ele>
        <time>2012-03-02T13:38:18Z</time>
      </trkpt>
      <trkpt lat="43.35634" lon="-0.51831">
        <ele>130.395996</ele>
        <time>2012-03-02T13:38:29Z</time>
      </trkpt>
      <trkpt lat="43.35688" lon="-0.51809">
        <ele>130.395996</ele>
        <time>2012-03-02T13:38:47Z</time>
      </trkpt>
      <trkpt lat="43.357" lon="-0.51793">
        <ele>129.915283</ele>
        <time>2012-03-02T13:38:53Z</time>
      </trkpt>
      <trkpt lat="43.35672" lon="-0.51756">
        <ele>130.876709</ele>
        <time>2012-03-02T13:39:07Z</time>
      </trkpt>
      <trkpt lat="43.3564" lon="-0.51727">
        <ele>131.3573</ele>
        <time>2012-03-02T13:39:18Z</time>
      </trkpt>
      <trkpt lat="43.35604" lon="-0.51699">
        <ele>132.799316</ele>
        <time>2012-03-02T13:39:32Z</time>
      </trkpt>
      <trkpt lat="43.35567" lon="-0.51674">
        <ele>133.760498</ele>
        <time>2012-03-02T13:39:48Z</time>
      </trkpt>
      <trkpt lat="43.35523" lon="-0.51669">
        <ele>133.279907</ele>
        <time>2012-03-02T13:40:02Z</time>
      </trkpt>
      <trkpt lat="43.35455" lon="-0.51679">
        <ele>134.721924</ele>
        <time>2012-03-02T13:40:22Z</time>
      </trkpt>
      <trkpt lat="43.3541" lon="-0.51665">
        <ele>133.279907</ele>
        <time>2012-03-02T13:40:35Z</time>
      </trkpt>
      <trkpt lat="43.35354" lon="-0.51622">
        <ele>133.279907</ele>
        <time>2012-03-02T13:40:50Z</time>
      </trkpt>
      <trkpt lat="43.35321" lon="-0.51603">
        <ele>132.799316</ele>
        <time>2012-03-02T13:40:59Z</time>
      </trkpt>
      <trkpt lat="43.35276" lon="-0.51551">
        <ele>130.876709</ele>
        <time>2012-03-02T13:41:13Z</time>
      </trkpt>
      <trkpt lat="43.35236" lon="-0.515">
        <ele>131.837891</ele>
        <time>2012-03-02T13:41:26Z</time>
      </trkpt>
      <trkpt lat="43.35215" lon="-0.51499">
        <ele>132.799316</ele>
        <time>2012-03-02T13:41:32Z</time>
      </trkpt>
      <trkpt lat="43.35171" lon="-0.51513">
        <ele>134.721924</ele>
        <time>2012-03-02T13:41:45Z</time>
      </trkpt>
      <trkpt lat="43.35123" lon="-0.51512">
        <ele>135.202515</ele>
        <time>2012-03-02T13:41:58Z</time>
      </trkpt>
      <trkpt lat="43.3511" lon="-0.51501">
        <ele>134.721924</ele>
        <time>2012-03-02T13:42:02Z</time>
      </trkpt>
      <trkpt lat="43.3507" lon="-0.51439">
        <ele>135.683105</ele>
        <time>2012-03-02T13:42:18Z</time>
      </trkpt>
      <trkpt lat="43.35059" lon="-0.514">
        <ele>135.202515</ele>
        <time>2012-03-02T13:42:26Z</time>
      </trkpt>
      <trkpt lat="43.35039" lon="-0.51401">
        <ele>134.721924</ele>
        <time>2012-03-02T13:42:31Z</time>
      </trkpt>
      <trkpt lat="43.3499" lon="-0.51417">
        <ele>134.721924</ele>
        <time>2012-03-02T13:42:45Z</time>
      </trkpt>
      <trkpt lat="43.34916" lon="-0.51365">
        <ele>134.721924</ele>
        <time>2012-03-02T13:43:05Z</time>
      </trkpt>
      <trkpt lat="43.34852" lon="-0.51315">
        <ele>134.241211</ele>
        <time>2012-03-02T13:43:23Z</time>
      </trkpt>
      <trkpt lat="43.34794" lon="-0.51288">
        <ele>134.721924</ele>
        <time>2012-03-02T13:43:37Z</time>
      </trkpt>
      <trkpt lat="43.34726" lon="-0.51259">
        <ele>135.202515</ele>
        <time>2012-03-02T13:43:55Z</time>
      </trkpt>
      <trkpt lat="43.34699" lon="-0.51255">
        <ele>135.202515</ele>
        <time>2012-03-02T13:44:02Z</time>
      </trkpt>
      <trkpt lat="43.34696" lon="-0.51236">
        <ele>134.721924</ele>
        <time>2012-03-02T13:44:07Z</time>
      </trkpt>
      <trkpt lat="43.34723" lon="-0.5115">
        <ele>135.683105</ele>
        <time>2012-03-02T13:44:26Z</time>
      </trkpt>
      <trkpt lat="43.34733" lon="-0.51126">
        <ele>135.683105</ele>
        <time>2012-03-02T13:44:31Z</time>
      </trkpt>
      <trkpt lat="43.34737" lon="-0.51104">
        <ele>135.683105</ele>
        <time>2012-03-02T13:44:35Z</time>
      </trkpt>
      <trkpt lat="43.34738" lon="-0.51087">
        <ele>135.683105</ele>
        <time>2012-03-02T13:44:38Z</time>
      </trkpt>
      <trkpt lat="43.34751" lon="-0.51045">
        <ele>136.16394</ele>
        <time>2012-03-02T13:44:46Z</time>
      </trkpt>
      <trkpt lat="43.34746" lon="-0.51005">
        <ele>136.16394</ele>
        <time>2012-03-02T13:44:54Z</time>
      </trkpt>
      <trkpt lat="43.34712" lon="-0.50943">
        <ele>135.683105</ele>
        <time>2012-03-02T13:45:09Z</time>
      </trkpt>
      <trkpt lat="43.34686" lon="-0.50892">
        <ele>136.16394</ele>
        <time>2012-03-02T13:45:23Z</time>
      </trkpt>
      <trkpt lat="43.34652" lon="-0.50845">
        <ele>135.683105</ele>
        <time>2012-03-02T13:45:37Z</time>
      </trkpt>
      <trkpt lat="43.34627" lon="-0.50815">
        <ele>135.683105</ele>
        <time>2012-03-02T13:45:50Z</time>
      </trkpt>
      <trkpt lat="43.34621" lon="-0.50807">
        <ele>136.644653</ele>
        <time>2012-03-02T13:46:06Z</time>
      </trkpt>
      <trkpt lat="43.3461" lon="-0.5078">
        <ele>137.125244</ele>
        <time>2012-03-02T13:46:13Z</time>
      </trkpt>
      <trkpt lat="43.34601" lon="-0.50753">
        <ele>137.605835</ele>
        <time>2012-03-02T13:46:18Z</time>
      </trkpt>
      <trkpt lat="43.34562" lon="-0.50703">
        <ele>138.086548</ele>
        <time>2012-03-02T13:46:32Z</time>
      </trkpt>
      <trkpt lat="43.3453" lon="-0.50658">
        <ele>138.086548</ele>
        <time>2012-03-02T13:46:46Z</time>
      </trkpt>
      <trkpt lat="43.34482" lon="-0.50595">
        <ele>138.086548</ele>
        <time>2012-03-02T13:47:05Z</time>
      </trkpt>
      <trkpt lat="43.34436" lon="-0.50555">
        <ele>138.086548</ele>
        <time>2012-03-02T13:47:22Z</time>
      </trkpt>
      <trkpt lat="43.34404" lon="-0.50515">
        <ele>138.086548</ele>
        <time>2012-03-02T13:47:34Z</time>
      </trkpt>
      <trkpt lat="43.34362" lon="-0.50492">
        <ele>139.047852</ele>
        <time>2012-03-02T13:47:47Z</time>
      </trkpt>
      <trkpt lat="43.34331" lon="-0.50476">
        <ele>138.567261</ele>
        <time>2012-03-02T13:47:57Z</time>
      </trkpt>
      <trkpt lat="43.34302" lon="-0.50439">
        <ele>139.047852</ele>
        <time>2012-03-02T13:48:08Z</time>
      </trkpt>
      <trkpt lat="43.34299" lon="-0.50435">
        <ele>139.528442</ele>
        <time>2012-03-02T13:48:09Z</time>
      </trkpt>
      <trkpt lat="43.34247" lon="-0.50376">
        <ele>140.009155</ele>
        <time>2012-03-02T13:48:24Z</time>
      </trkpt>
      <trkpt lat="43.34181" lon="-0.50327">
        <ele>140.970459</ele>
        <time>2012-03-02T13:48:41Z</time>
      </trkpt>
      <trkpt lat="43.3416" lon="-0.50316">
        <ele>140.489868</ele>
        <time>2012-03-02T13:48:46Z</time>
      </trkpt>
      <trkpt lat="43.3414" lon="-0.50294">
        <ele>141.931763</ele>
        <time>2012-03-02T13:48:51Z</time>
      </trkpt>
      <trkpt lat="43.34128" lon="-0.50274">
        <ele>141.45105</ele>
        <time>2012-03-02T13:48:55Z</time>
      </trkpt>
      <trkpt lat="43.34081" lon="-0.50226">
        <ele>141.45105</ele>
        <time>2012-03-02T13:49:08Z</time>
      </trkpt>
      <trkpt lat="43.34048" lon="-0.50176">
        <ele>140.489868</ele>
        <time>2012-03-02T13:49:18Z</time>
      </trkpt>
      <trkpt lat="43.34039" lon="-0.50164">
        <ele>139.528442</ele>
        <time>2012-03-02T13:49:20Z</time>
      </trkpt>
      <trkpt lat="43.34011" lon="-0.50136">
        <ele>140.970459</ele>
        <time>2012-03-02T13:49:27Z</time>
      </trkpt>
      <trkpt lat="43.34" lon="-0.50117">
        <ele>140.009155</ele>
        <time>2012-03-02T13:49:31Z</time>
      </trkpt>
      <trkpt lat="43.33968" lon="-0.49998">
        <ele>140.489868</ele>
        <time>2012-03-02T13:49:51Z</time>
      </trkpt>
      <trkpt lat="43.33958" lon="-0.49964">
        <ele>140.489868</ele>
        <time>2012-03-02T13:49:57Z</time>
      </trkpt>
      <trkpt lat="43.33917" lon="-0.49896">
        <ele>143.373657</ele>
        <time>2012-03-02T13:50:13Z</time>
      </trkpt>
      <trkpt lat="43.33908" lon="-0.49888">
        <ele>141.931763</ele>
        <time>2012-03-02T13:50:16Z</time>
      </trkpt>
      <trkpt lat="43.33888" lon="-0.49843">
        <ele>141.45105</ele>
        <time>2012-03-02T13:50:25Z</time>
      </trkpt>
      <trkpt lat="43.33871" lon="-0.49815">
        <ele>139.528442</ele>
        <time>2012-03-02T13:50:30Z</time>
      </trkpt>
      <trkpt lat="43.3384" lon="-0.4978">
        <ele>140.970459</ele>
        <time>2012-03-02T13:50:41Z</time>
      </trkpt>
      <trkpt lat="43.33852" lon="-0.49739">
        <ele>140.009155</ele>
        <time>2012-03-02T13:50:54Z</time>
      </trkpt>
      <trkpt lat="43.33849" lon="-0.49703">
        <ele>140.970459</ele>
        <time>2012-03-02T13:51:05Z</time>
      </trkpt>
      <trkpt lat="43.33833" lon="-0.49653">
        <ele>141.45105</ele>
        <time>2012-03-02T13:51:21Z</time>
      </trkpt>
      <trkpt lat="43.33827" lon="-0.49588">
        <ele>142.893066</ele>
        <time>2012-03-02T13:51:34Z</time>
      </trkpt>
      <trkpt lat="43.33822" lon="-0.4957">
        <ele>142.412476</ele>
        <time>2012-03-02T13:51:37Z</time>
      </trkpt>
      <trkpt lat="43.33808" lon="-0.49542">
        <ele>141.931763</ele>
        <time>2012-03-02T13:51:42Z</time>
      </trkpt>
      <trkpt lat="43.33796" lon="-0.49506">
        <ele>141.45105</ele>
        <time>2012-03-02T13:51:48Z</time>
      </trkpt>
      <trkpt lat="43.33776" lon="-0.4947">
        <ele>142.893066</ele>
        <time>2012-03-02T13:51:55Z</time>
      </trkpt>
      <trkpt lat="43.33737" lon="-0.49448">
        <ele>142.893066</ele>
        <time>2012-03-02T13:52:04Z</time>
      </trkpt>
      <trkpt lat="43.33721" lon="-0.49421">
        <ele>142.412476</ele>
        <time>2012-03-02T13:52:09Z</time>
      </trkpt>
      <trkpt lat="43.33705" lon="-0.49346">
        <ele>143.373657</ele>
        <time>2012-03-02T13:52:20Z</time>
      </trkpt>
      <trkpt lat="43.33691" lon="-0.49314">
        <ele>143.373657</ele>
        <time>2012-03-02T13:52:25Z</time>
      </trkpt>
      <trkpt lat="43.33679" lon="-0.49299">
        <ele>143.85437</ele>
        <time>2012-03-02T13:52:28Z</time>
      </trkpt>
      <trkpt lat="43.33645" lon="-0.49282">
        <ele>142.893066</ele>
        <time>2012-03-02T13:52:35Z</time>
      </trkpt>
      <trkpt lat="43.33628" lon="-0.49249">
        <ele>142.412476</ele>
        <time>2012-03-02T13:52:41Z</time>
      </trkpt>
      <trkpt lat="43.33622" lon="-0.49208">
        <ele>143.373657</ele>
        <time>2012-03-02T13:52:47Z</time>
      </trkpt>
      <trkpt lat="43.33608" lon="-0.49179">
        <ele>143.373657</ele>
        <time>2012-03-02T13:52:52Z</time>
      </trkpt>
      <trkpt lat="43.33565" lon="-0.49127">
        <ele>143.85437</ele>
        <time>2012-03-02T13:53:03Z</time>
      </trkpt>
      <trkpt lat="43.33545" lon="-0.4909">
        <ele>143.85437</ele>
        <time>2012-03-02T13:53:10Z</time>
      </trkpt>
      <trkpt lat="43.33537" lon="-0.49066">
        <ele>143.85437</ele>
        <time>2012-03-02T13:53:14Z</time>
      </trkpt>
      <trkpt lat="43.33524" lon="-0.48963">
        <ele>142.412476</ele>
        <time>2012-03-02T13:53:27Z</time>
      </trkpt>
      <trkpt lat="43.33501" lon="-0.48842">
        <ele>141.931763</ele>
        <time>2012-03-02T13:53:43Z</time>
      </trkpt>
      <trkpt lat="43.3349" lon="-0.4879">
        <ele>142.412476</ele>
        <time>2012-03-02T13:53:50Z</time>
      </trkpt>
      <trkpt lat="43.33468" lon="-0.48771">
        <ele>143.373657</ele>
        <time>2012-03-02T13:53:56Z</time>
      </trkpt>
      <trkpt lat="43.33458" lon="-0.48787">
        <ele>143.85437</ele>
        <time>2012-03-02T13:54:00Z</time>
      </trkpt>
      <trkpt lat="43.33444" lon="-0.48809">
        <ele>143.85437</ele>
        <time>2012-03-02T13:54:05Z</time>
      </trkpt>
      <trkpt lat="43.33382" lon="-0.48849">
        <ele>145.296387</ele>
        <time>2012-03-02T13:54:21Z</time>
      </trkpt>
      <trkpt lat="43.33356" lon="-0.48844">
        <ele>144.815796</ele>
        <time>2012-03-02T13:54:27Z</time>
      </trkpt>
      <trkpt lat="43.33314" lon="-0.48798">
        <ele>144.335205</ele>
        <time>2012-03-02T13:54:37Z</time>
      </trkpt>
      <trkpt lat="43.33303" lon="-0.48772">
        <ele>143.85437</ele>
        <time>2012-03-02T13:54:41Z</time>
      </trkpt>
      <trkpt lat="43.33286" lon="-0.48732">
        <ele>143.85437</ele>
        <time>2012-03-02T13:54:47Z</time>
      </trkpt>
      <trkpt lat="43.33212" lon="-0.48638">
        <ele>144.815796</ele>
        <time>2012-03-02T13:55:05Z</time>
      </trkpt>
      <trkpt lat="43.33187" lon="-0.48582">
        <ele>144.815796</ele>
        <time>2012-03-02T13:55:14Z</time>
      </trkpt>
      <trkpt lat="43.33188" lon="-0.48549">
        <ele>144.335205</ele>
        <time>2012-03-02T13:55:19Z</time>
      </trkpt>
      <trkpt lat="43.33191" lon="-0.48536">
        <ele>145.296387</ele>
        <time>2012-03-02T13:55:21Z</time>
      </trkpt>
      <trkpt lat="43.33196" lon="-0.48477">
        <ele>144.335205</ele>
        <time>2012-03-02T13:55:29Z</time>
      </trkpt>
      <trkpt lat="43.33184" lon="-0.48448">
        <ele>144.815796</ele>
        <time>2012-03-02T13:55:34Z</time>
      </trkpt>
      <trkpt lat="43.33175" lon="-0.48439">
        <ele>144.815796</ele>
        <time>2012-03-02T13:55:36Z</time>
      </trkpt>
      <trkpt lat="43.33167" lon="-0.48433">
        <ele>144.815796</ele>
        <time>2012-03-02T13:55:38Z</time>
      </trkpt>
      <trkpt lat="43.33133" lon="-0.48422">
        <ele>144.815796</ele>
        <time>2012-03-02T13:55:45Z</time>
      </trkpt>
      <trkpt lat="43.33115" lon="-0.4841">
        <ele>145.7771</ele>
        <time>2012-03-02T13:55:49Z</time>
      </trkpt>
      <trkpt lat="43.33105" lon="-0.48398">
        <ele>145.7771</ele>
        <time>2012-03-02T13:55:52Z</time>
      </trkpt>
      <trkpt lat="43.33088" lon="-0.4835">
        <ele>145.296387</ele>
        <time>2012-03-02T13:56:00Z</time>
      </trkpt>
      <trkpt lat="43.33078" lon="-0.48336">
        <ele>145.7771</ele>
        <time>2012-03-02T13:56:03Z</time>
      </trkpt>
      <trkpt lat="43.33047" lon="-0.48246">
        <ele>146.738403</ele>
        <time>2012-03-02T13:56:21Z</time>
      </trkpt>
      <trkpt lat="43.33058" lon="-0.48205">
        <ele>146.257812</ele>
        <time>2012-03-02T13:56:29Z</time>
      </trkpt>
      <trkpt lat="43.33059" lon="-0.4818">
        <ele>146.738403</ele>
        <time>2012-03-02T13:56:33Z</time>
      </trkpt>
      <trkpt lat="43.33043" lon="-0.48097">
        <ele>146.738403</ele>
        <time>2012-03-02T13:56:47Z</time>
      </trkpt>
      <trkpt lat="43.33033" lon="-0.48075">
        <ele>146.257812</ele>
        <time>2012-03-02T13:56:51Z</time>
      </trkpt>
      <trkpt lat="43.33008" lon="-0.48028">
        <ele>145.7771</ele>
        <time>2012-03-02T13:56:59Z</time>
      </trkpt>
      <trkpt lat="43.32997" lon="-0.47989">
        <ele>147.699707</ele>
        <time>2012-03-02T13:57:05Z</time>
      </trkpt>
      <trkpt lat="43.32964" lon="-0.47901">
        <ele>147.699707</ele>
        <time>2012-03-02T13:57:19Z</time>
      </trkpt>
      <trkpt lat="43.32922" lon="-0.4779">
        <ele>147.699707</ele>
        <time>2012-03-02T13:57:36Z</time>
      </trkpt>
      <trkpt lat="43.32874" lon="-0.47675">
        <ele>148.18042</ele>
        <time>2012-03-02T13:57:53Z</time>
      </trkpt>
      <trkpt lat="43.32834" lon="-0.47568">
        <ele>147.699707</ele>
        <time>2012-03-02T13:58:09Z</time>
      </trkpt>
      <trkpt lat="43.32844" lon="-0.47529">
        <ele>148.18042</ele>
        <time>2012-03-02T13:58:17Z</time>
      </trkpt>
      <trkpt lat="43.32859" lon="-0.4752">
        <ele>148.661011</ele>
        <time>2012-03-02T13:58:21Z</time>
      </trkpt>
      <trkpt lat="43.32862" lon="-0.47484">
        <ele>148.18042</ele>
        <time>2012-03-02T13:58:29Z</time>
      </trkpt>
      <trkpt lat="43.32846" lon="-0.47448">
        <ele>147.699707</ele>
        <time>2012-03-02T13:58:35Z</time>
      </trkpt>
      <trkpt lat="43.32823" lon="-0.47311">
        <ele>147.699707</ele>
        <time>2012-03-02T13:58:54Z</time>
      </trkpt>
      <trkpt lat="43.32815" lon="-0.47188">
        <ele>149.141602</ele>
        <time>2012-03-02T13:59:11Z</time>
      </trkpt>
      <trkpt lat="43.32818" lon="-0.47166">
        <ele>148.661011</ele>
        <time>2012-03-02T13:59:14Z</time>
      </trkpt>
      <trkpt lat="43.32817" lon="-0.47135">
        <ele>149.622314</ele>
        <time>2012-03-02T13:59:18Z</time>
      </trkpt>
      <trkpt lat="43.32811" lon="-0.47054">
        <ele>151.064209</ele>
        <time>2012-03-02T13:59:30Z</time>
      </trkpt>
      <trkpt lat="43.32844" lon="-0.46955">
        <ele>150.583618</ele>
        <time>2012-03-02T13:59:45Z</time>
      </trkpt>
      <trkpt lat="43.32852" lon="-0.46938">
        <ele>150.583618</ele>
        <time>2012-03-02T13:59:48Z</time>
      </trkpt>
      <trkpt lat="43.32883" lon="-0.46884">
        <ele>150.103027</ele>
        <time>2012-03-02T13:59:58Z</time>
      </trkpt>
      <trkpt lat="43.32897" lon="-0.46866">
        <ele>150.103027</ele>
        <time>2012-03-02T14:00:02Z</time>
      </trkpt>
      <trkpt lat="43.32948" lon="-0.46821">
        <ele>150.583618</ele>
        <time>2012-03-02T14:00:14Z</time>
      </trkpt>
      <trkpt lat="43.32979" lon="-0.46775">
        <ele>149.141602</ele>
        <time>2012-03-02T14:00:28Z</time>
      </trkpt>
      <trkpt lat="43.33032" lon="-0.46722">
        <ele>150.103027</ele>
        <time>2012-03-02T14:00:44Z</time>
      </trkpt>
      <trkpt lat="43.33046" lon="-0.46711">
        <ele>149.622314</ele>
        <time>2012-03-02T14:00:47Z</time>
      </trkpt>
      <trkpt lat="43.33065" lon="-0.46679">
        <ele>150.103027</ele>
        <time>2012-03-02T14:00:53Z</time>
      </trkpt>
      <trkpt lat="43.33076" lon="-0.4665">
        <ele>150.583618</ele>
        <time>2012-03-02T14:00:58Z</time>
      </trkpt>
      <trkpt lat="43.33095" lon="-0.4663">
        <ele>150.583618</ele>
        <time>2012-03-02T14:01:03Z</time>
      </trkpt>
      <trkpt lat="43.33107" lon="-0.46618">
        <ele>151.064209</ele>
        <time>2012-03-02T14:01:06Z</time>
      </trkpt>
      <trkpt lat="43.33114" lon="-0.46571">
        <ele>150.103027</ele>
        <time>2012-03-02T14:01:14Z</time>
      </trkpt>
      <trkpt lat="43.3311" lon="-0.46559">
        <ele>149.622314</ele>
        <time>2012-03-02T14:01:16Z</time>
      </trkpt>
      <trkpt lat="43.3308" lon="-0.46508">
        <ele>150.583618</ele>
        <time>2012-03-02T14:01:26Z</time>
      </trkpt>
      <trkpt lat="43.33029" lon="-0.46446">
        <ele>150.583618</ele>
        <time>2012-03-02T14:01:40Z</time>
      </trkpt>
      <trkpt lat="43.33003" lon="-0.46437">
        <ele>150.583618</ele>
        <time>2012-03-02T14:01:45Z</time>
      </trkpt>
      <trkpt lat="43.32981" lon="-0.46419">
        <ele>151.544922</ele>
        <time>2012-03-02T14:01:50Z</time>
      </trkpt>
      <trkpt lat="43.32926" lon="-0.46367">
        <ele>151.544922</ele>
        <time>2012-03-02T14:02:03Z</time>
      </trkpt>
      <trkpt lat="43.32854" lon="-0.46274">
        <ele>151.544922</ele>
        <time>2012-03-02T14:02:22Z</time>
      </trkpt>
      <trkpt lat="43.3279" lon="-0.46189">
        <ele>151.544922</ele>
        <time>2012-03-02T14:02:39Z</time>
      </trkpt>
      <trkpt lat="43.3274" lon="-0.46094">
        <ele>151.064209</ele>
        <time>2012-03-02T14:02:54Z</time>
      </trkpt>
      <trkpt lat="43.32662" lon="-0.45983">
        <ele>152.506348</ele>
        <time>2012-03-02T14:03:13Z</time>
      </trkpt>
      <trkpt lat="43.32577" lon="-0.45901">
        <ele>151.544922</ele>
        <time>2012-03-02T14:03:31Z</time>
      </trkpt>
      <trkpt lat="43.32476" lon="-0.45798">
        <ele>152.506348</ele>
        <time>2012-03-02T14:03:52Z</time>
      </trkpt>
      <trkpt lat="43.32454" lon="-0.45762">
        <ele>152.506348</ele>
        <time>2012-03-02T14:03:58Z</time>
      </trkpt>
      <trkpt lat="43.32385" lon="-0.45712">
        <ele>152.986938</ele>
        <time>2012-03-02T14:04:12Z</time>
      </trkpt>
      <trkpt lat="43.32263" lon="-0.45625">
        <ele>154.909546</ele>
        <time>2012-03-02T14:04:36Z</time>
      </trkpt>
      <trkpt lat="43.32187" lon="-0.45571">
        <ele>152.986938</ele>
        <time>2012-03-02T14:04:52Z</time>
      </trkpt>
      <trkpt lat="43.32177" lon="-0.45565">
        <ele>152.986938</ele>
        <time>2012-03-02T14:04:54Z</time>
      </trkpt>
      <trkpt lat="43.32075" lon="-0.4552">
        <ele>154.428955</ele>
        <time>2012-03-02T14:05:12Z</time>
      </trkpt>
      <trkpt lat="43.3198" lon="-0.45464">
        <ele>154.428955</ele>
        <time>2012-03-02T14:05:29Z</time>
      </trkpt>
      <trkpt lat="43.31916" lon="-0.45423">
        <ele>153.948364</ele>
        <time>2012-03-02T14:05:42Z</time>
      </trkpt>
      <trkpt lat="43.31904" lon="-0.45413">
        <ele>153.948364</ele>
        <time>2012-03-02T14:05:45Z</time>
      </trkpt>
      <trkpt lat="43.31888" lon="-0.45389">
        <ele>153.948364</ele>
        <time>2012-03-02T14:05:50Z</time>
      </trkpt>
      <trkpt lat="43.31858" lon="-0.45348">
        <ele>153.467651</ele>
        <time>2012-03-02T14:05:57Z</time>
      </trkpt>
      <trkpt lat="43.31818" lon="-0.45318">
        <ele>153.948364</ele>
        <time>2012-03-02T14:06:05Z</time>
      </trkpt>
      <trkpt lat="43.31812" lon="-0.45304">
        <ele>153.948364</ele>
        <time>2012-03-02T14:06:07Z</time>
      </trkpt>
      <trkpt lat="43.31804" lon="-0.45273">
        <ele>154.428955</ele>
        <time>2012-03-02T14:06:11Z</time>
      </trkpt>
      <trkpt lat="43.31804" lon="-0.45253">
        <ele>154.428955</ele>
        <time>2012-03-02T14:06:14Z</time>
      </trkpt>
      <trkpt lat="43.31789" lon="-0.45224">
        <ele>153.948364</ele>
        <time>2012-03-02T14:06:19Z</time>
      </trkpt>
      <trkpt lat="43.31694" lon="-0.45182">
        <ele>154.909546</ele>
        <time>2012-03-02T14:06:35Z</time>
      </trkpt>
      <trkpt lat="43.31604" lon="-0.45194">
        <ele>156.351562</ele>
        <time>2012-03-02T14:06:50Z</time>
      </trkpt>
      <trkpt lat="43.31586" lon="-0.45194">
        <ele>155.390259</ele>
        <time>2012-03-02T14:06:53Z</time>
      </trkpt>
      <trkpt lat="43.31568" lon="-0.45196">
        <ele>155.390259</ele>
        <time>2012-03-02T14:06:56Z</time>
      </trkpt>
      <trkpt lat="43.31558" lon="-0.45195">
        <ele>156.351562</ele>
        <time>2012-03-02T14:06:58Z</time>
      </trkpt>
      <trkpt lat="43.31544" lon="-0.45188">
        <ele>155.870972</ele>
        <time>2012-03-02T14:07:01Z</time>
      </trkpt>
      <trkpt lat="43.31528" lon="-0.45179">
        <ele>156.351562</ele>
        <time>2012-03-02T14:07:04Z</time>
      </trkpt>
      <trkpt lat="43.31503" lon="-0.45167">
        <ele>155.870972</ele>
        <time>2012-03-02T14:07:09Z</time>
      </trkpt>
      <trkpt lat="43.31464" lon="-0.45158">
        <ele>156.351562</ele>
        <time>2012-03-02T14:07:16Z</time>
      </trkpt>
      <trkpt lat="43.31436" lon="-0.45139">
        <ele>155.390259</ele>
        <time>2012-03-02T14:07:22Z</time>
      </trkpt>
      <trkpt lat="43.31423" lon="-0.45132">
        <ele>154.909546</ele>
        <time>2012-03-02T14:07:24Z</time>
      </trkpt>
      <trkpt lat="43.31379" lon="-0.45122">
        <ele>155.390259</ele>
        <time>2012-03-02T14:07:31Z</time>
      </trkpt>
      <trkpt lat="43.31295" lon="-0.45079">
        <ele>154.909546</ele>
        <time>2012-03-02T14:07:46Z</time>
      </trkpt>
      <trkpt lat="43.31236" lon="-0.45043">
        <ele>154.428955</ele>
        <time>2012-03-02T14:07:57Z</time>
      </trkpt>
      <trkpt lat="43.31215" lon="-0.45029">
        <ele>154.909546</ele>
        <time>2012-03-02T14:08:01Z</time>
      </trkpt>
      <trkpt lat="43.31123" lon="-0.44952">
        <ele>155.870972</ele>
        <time>2012-03-02T14:08:19Z</time>
      </trkpt>
      <trkpt lat="43.31019" lon="-0.44875">
        <ele>155.870972</ele>
        <time>2012-03-02T14:08:39Z</time>
      </trkpt>
      <trkpt lat="43.30967" lon="-0.44813">
        <ele>154.909546</ele>
        <time>2012-03-02T14:08:51Z</time>
      </trkpt>
      <trkpt lat="43.30949" lon="-0.44776">
        <ele>155.870972</ele>
        <time>2012-03-02T14:08:57Z</time>
      </trkpt>
      <trkpt lat="43.30942" lon="-0.44765">
        <ele>155.870972</ele>
        <time>2012-03-02T14:08:59Z</time>
      </trkpt>
      <trkpt lat="43.30927" lon="-0.44751">
        <ele>155.870972</ele>
        <time>2012-03-02T14:09:03Z</time>
      </trkpt>
      <trkpt lat="43.30891" lon="-0.4472">
        <ele>155.390259</ele>
        <time>2012-03-02T14:09:15Z</time>
      </trkpt>
      <trkpt lat="43.30868" lon="-0.44678">
        <ele>155.870972</ele>
        <time>2012-03-02T14:09:24Z</time>
      </trkpt>
      <trkpt lat="43.30852" lon="-0.44651">
        <ele>155.870972</ele>
        <time>2012-03-02T14:09:30Z</time>
      </trkpt>
      <trkpt lat="43.30823" lon="-0.44634">
        <ele>159.235474</ele>
        <time>2012-03-02T14:09:39Z</time>
      </trkpt>
      <trkpt lat="43.30816" lon="-0.44615">
        <ele>158.27417</ele>
        <time>2012-03-02T14:09:46Z</time>
      </trkpt>
      <trkpt lat="43.30806" lon="-0.44568">
        <ele>156.832153</ele>
        <time>2012-03-02T14:09:53Z</time>
      </trkpt>
      <trkpt lat="43.30801" lon="-0.44556">
        <ele>156.351562</ele>
        <time>2012-03-02T14:09:55Z</time>
      </trkpt>
      <trkpt lat="43.30796" lon="-0.44545">
        <ele>156.351562</ele>
        <time>2012-03-02T14:09:57Z</time>
      </trkpt>
      <trkpt lat="43.30793" lon="-0.44532">
        <ele>155.870972</ele>
        <time>2012-03-02T14:09:59Z</time>
      </trkpt>
      <trkpt lat="43.30776" lon="-0.44465">
        <ele>155.870972</ele>
        <time>2012-03-02T14:10:14Z</time>
      </trkpt>
      <trkpt lat="43.30769" lon="-0.44424">
        <ele>156.351562</ele>
        <time>2012-03-02T14:10:22Z</time>
      </trkpt>
      <trkpt lat="43.30766" lon="-0.44402">
        <ele>156.351562</ele>
        <time>2012-03-02T14:10:26Z</time>
      </trkpt>
      <trkpt lat="43.3074" lon="-0.44298">
        <ele>156.351562</ele>
        <time>2012-03-02T14:10:43Z</time>
      </trkpt>
      <trkpt lat="43.30707" lon="-0.44216">
        <ele>156.351562</ele>
        <time>2012-03-02T14:10:57Z</time>
      </trkpt>
      <trkpt lat="43.3067" lon="-0.44146">
        <ele>157.312866</ele>
        <time>2012-03-02T14:11:11Z</time>
      </trkpt>
      <trkpt lat="43.30624" lon="-0.4407">
        <ele>157.312866</ele>
        <time>2012-03-02T14:11:27Z</time>
      </trkpt>
      <trkpt lat="43.30591" lon="-0.44018">
        <ele>157.793579</ele>
        <time>2012-03-02T14:11:39Z</time>
      </trkpt>
      <trkpt lat="43.30587" lon="-0.44013">
        <ele>158.27417</ele>
        <time>2012-03-02T14:11:40Z</time>
      </trkpt>
      <trkpt lat="43.30543" lon="-0.43931">
        <ele>159.235474</ele>
        <time>2012-03-02T14:11:57Z</time>
      </trkpt>
      <trkpt lat="43.30492" lon="-0.43845">
        <ele>160.196899</ele>
        <time>2012-03-02T14:12:16Z</time>
      </trkpt>
      <trkpt lat="43.3049" lon="-0.4384">
        <ele>159.716187</ele>
        <time>2012-03-02T14:12:17Z</time>
      </trkpt>
      <trkpt lat="43.30472" lon="-0.43763">
        <ele>160.67749</ele>
        <time>2012-03-02T14:12:32Z</time>
      </trkpt>
      <trkpt lat="43.30459" lon="-0.43742">
        <ele>160.67749</ele>
        <time>2012-03-02T14:12:37Z</time>
      </trkpt>
      <trkpt lat="43.30423" lon="-0.43645">
        <ele>161.158203</ele>
        <time>2012-03-02T14:12:55Z</time>
      </trkpt>
      <trkpt lat="43.30393" lon="-0.43575">
        <ele>161.158203</ele>
        <time>2012-03-02T14:13:10Z</time>
      </trkpt>
      <trkpt lat="43.30369" lon="-0.43533">
        <ele>161.158203</ele>
        <time>2012-03-02T14:13:20Z</time>
      </trkpt>
      <trkpt lat="43.30366" lon="-0.4352">
        <ele>159.716187</ele>
        <time>2012-03-02T14:13:22Z</time>
      </trkpt>
      <trkpt lat="43.30372" lon="-0.435">
        <ele>159.716187</ele>
        <time>2012-03-02T14:13:25Z</time>
      </trkpt>
      <trkpt lat="43.30375" lon="-0.43453">
        <ele>159.235474</ele>
        <time>2012-03-02T14:13:32Z</time>
      </trkpt>
      <trkpt lat="43.30323" lon="-0.43338">
        <ele>159.716187</ele>
        <time>2012-03-02T14:13:51Z</time>
      </trkpt>
      <trkpt lat="43.30277" lon="-0.4325">
        <ele>161.158203</ele>
        <time>2012-03-02T14:14:06Z</time>
      </trkpt>
      <trkpt lat="43.30258" lon="-0.43159">
        <ele>161.158203</ele>
        <time>2012-03-02T14:14:19Z</time>
      </trkpt>
      <trkpt lat="43.30227" lon="-0.43029">
        <ele>161.158203</ele>
        <time>2012-03-02T14:14:37Z</time>
      </trkpt>
      <trkpt lat="43.30194" lon="-0.42927">
        <ele>161.638916</ele>
        <time>2012-03-02T14:14:52Z</time>
      </trkpt>
      <trkpt lat="43.30171" lon="-0.42828">
        <ele>162.119507</ele>
        <time>2012-03-02T14:15:06Z</time>
      </trkpt>
      <trkpt lat="43.30158" lon="-0.42786">
        <ele>161.638916</ele>
        <time>2012-03-02T14:15:12Z</time>
      </trkpt>
      <trkpt lat="43.30134" lon="-0.42678">
        <ele>161.638916</ele>
        <time>2012-03-02T14:15:27Z</time>
      </trkpt>
      <trkpt lat="43.30089" lon="-0.42543">
        <ele>162.600098</ele>
        <time>2012-03-02T14:15:46Z</time>
      </trkpt>
      <trkpt lat="43.30075" lon="-0.42511">
        <ele>163.080811</ele>
        <time>2012-03-02T14:15:51Z</time>
      </trkpt>
      <trkpt lat="43.30068" lon="-0.42499">
        <ele>163.561523</ele>
        <time>2012-03-02T14:15:53Z</time>
      </trkpt>
      <trkpt lat="43.30033" lon="-0.42399">
        <ele>163.080811</ele>
        <time>2012-03-02T14:16:08Z</time>
      </trkpt>
      <trkpt lat="43.30021" lon="-0.42373">
        <ele>163.080811</ele>
        <time>2012-03-02T14:16:12Z</time>
      </trkpt>
      <trkpt lat="43.30015" lon="-0.42345">
        <ele>162.600098</ele>
        <time>2012-03-02T14:16:16Z</time>
      </trkpt>
      <trkpt lat="43.30014" lon="-0.42331">
        <ele>162.600098</ele>
        <time>2012-03-02T14:16:18Z</time>
      </trkpt>
      <trkpt lat="43.30002" lon="-0.42297">
        <ele>162.119507</ele>
        <time>2012-03-02T14:16:23Z</time>
      </trkpt>
      <trkpt lat="43.29991" lon="-0.42253">
        <ele>162.119507</ele>
        <time>2012-03-02T14:16:29Z</time>
      </trkpt>
      <trkpt lat="43.29993" lon="-0.42193">
        <ele>162.119507</ele>
        <time>2012-03-02T14:16:37Z</time>
      </trkpt>
      <trkpt lat="43.29974" lon="-0.42089">
        <ele>163.080811</ele>
        <time>2012-03-02T14:16:52Z</time>
      </trkpt>
      <trkpt lat="43.2996" lon="-0.42068">
        <ele>163.080811</ele>
        <time>2012-03-02T14:16:56Z</time>
      </trkpt>
      <trkpt lat="43.29927" lon="-0.42009">
        <ele>163.561523</ele>
        <time>2012-03-02T14:17:06Z</time>
      </trkpt>
      <trkpt lat="43.29917" lon="-0.41986">
        <ele>164.522705</ele>
        <time>2012-03-02T14:17:10Z</time>
      </trkpt>
      <trkpt lat="43.29871" lon="-0.41925">
        <ele>164.522705</ele>
        <time>2012-03-02T14:17:22Z</time>
      </trkpt>
      <trkpt lat="43.29859" lon="-0.41903">
        <ele>165.484131</ele>
        <time>2012-03-02T14:17:26Z</time>
      </trkpt>
      <trkpt lat="43.2984" lon="-0.41832">
        <ele>165.964722</ele>
        <time>2012-03-02T14:17:37Z</time>
      </trkpt>
      <trkpt lat="43.29814" lon="-0.41787">
        <ele>166.445312</ele>
        <time>2012-03-02T14:17:46Z</time>
      </trkpt>
      <trkpt lat="43.29814" lon="-0.41773">
        <ele>166.926025</ele>
        <time>2012-03-02T14:17:48Z</time>
      </trkpt>
      <trkpt lat="43.29797" lon="-0.41673">
        <ele>166.926025</ele>
        <time>2012-03-02T14:18:02Z</time>
      </trkpt>
      <trkpt lat="43.29797" lon="-0.41651">
        <ele>166.926025</ele>
        <time>2012-03-02T14:18:05Z</time>
      </trkpt>
      <trkpt lat="43.2978" lon="-0.41596">
        <ele>166.926025</ele>
        <time>2012-03-02T14:18:14Z</time>
      </trkpt>
      <trkpt lat="43.2977" lon="-0.41561">
        <ele>166.926025</ele>
        <time>2012-03-02T14:18:19Z</time>
      </trkpt>
      <trkpt lat="43.29722" lon="-0.41475">
        <ele>165.964722</ele>
        <time>2012-03-02T14:18:34Z</time>
      </trkpt>
      <trkpt lat="43.29711" lon="-0.41461">
        <ele>165.964722</ele>
        <time>2012-03-02T14:18:37Z</time>
      </trkpt>
      <trkpt lat="43.29703" lon="-0.41438">
        <ele>165.964722</ele>
        <time>2012-03-02T14:18:42Z</time>
      </trkpt>
      <trkpt lat="43.29698" lon="-0.41409">
        <ele>165.484131</ele>
        <time>2012-03-02T14:18:48Z</time>
      </trkpt>
      <trkpt lat="43.29676" lon="-0.41372">
        <ele>165.484131</ele>
        <time>2012-03-02T14:18:58Z</time>
      </trkpt>
      <trkpt lat="43.29656" lon="-0.41374">
        <ele>166.445312</ele>
        <time>2012-03-02T14:19:04Z</time>
      </trkpt>
      <trkpt lat="43.29655" lon="-0.41377">
        <ele>166.445312</ele>
        <time>2012-03-02T14:19:19Z</time>
      </trkpt>
      <trkpt lat="43.29656" lon="-0.41377">
        <ele>166.445312</ele>
        <time>2012-03-02T14:19:36Z</time>
      </trkpt>
      <trkpt lat="43.29656" lon="-0.41375">
        <ele>166.445312</ele>
        <time>2012-03-02T14:19:51Z</time>
      </trkpt>
      <trkpt lat="43.29655" lon="-0.41373">
        <ele>166.445312</ele>
        <time>2012-03-02T14:20:14Z</time>
      </trkpt>
      <trkpt lat="43.29656" lon="-0.41375">
        <ele>166.926025</ele>
        <time>2012-03-02T14:20:44Z</time>
      </trkpt>
      <trkpt lat="43.29653" lon="-0.41374">
        <ele>165.964722</ele>
        <time>2012-03-02T14:21:11Z</time>
      </trkpt>
      <trkpt lat="43.29655" lon="-0.4137">
        <ele>166.445312</ele>
        <time>2012-03-02T14:21:33Z</time>
      </trkpt>
      <trkpt lat="43.29655" lon="-0.41371">
        <ele>166.445312</ele>
        <time>2012-03-02T14:21:52Z</time>
      </trkpt>
      <trkpt lat="43.29655" lon="-0.41371">
        <ele>165.484131</ele>
        <time>2012-03-02T14:22:06Z</time>
      </trkpt>
      <trkpt lat="43.29673" lon="-0.4137">
        <ele>166.445312</ele>
        <time>2012-03-02T14:22:17Z</time>
      </trkpt>
      <trkpt lat="43.29688" lon="-0.41384">
        <ele>165.964722</ele>
        <time>2012-03-02T14:22:23Z</time>
      </trkpt>
      <trkpt lat="43.29709" lon="-0.41457">
        <ele>165.964722</ele>
        <time>2012-03-02T14:22:40Z</time>
      </trkpt>
      <trkpt lat="43.29744" lon="-0.41506">
        <ele>165.964722</ele>
        <time>2012-03-02T14:22:52Z</time>
      </trkpt>
      <trkpt lat="43.29754" lon="-0.41519">
        <ele>165.964722</ele>
        <time>2012-03-02T14:22:55Z</time>
      </trkpt>
      <trkpt lat="43.29766" lon="-0.41539">
        <ele>165.964722</ele>
        <time>2012-03-02T14:22:59Z</time>
      </trkpt>
      <trkpt lat="43.2977" lon="-0.4155">
        <ele>165.964722</ele>
        <time>2012-03-02T14:23:01Z</time>
      </trkpt>
      <trkpt lat="43.29774" lon="-0.41573">
        <ele>165.964722</ele>
        <time>2012-03-02T14:23:05Z</time>
      </trkpt>
      <trkpt lat="43.29787" lon="-0.41614">
        <ele>167.406738</ele>
        <time>2012-03-02T14:23:13Z</time>
      </trkpt>
      <trkpt lat="43.29794" lon="-0.4163">
        <ele>166.926025</ele>
        <time>2012-03-02T14:23:16Z</time>
      </trkpt>
      <trkpt lat="43.29797" lon="-0.41642">
        <ele>166.926025</ele>
        <time>2012-03-02T14:23:18Z</time>
      </trkpt>
      <trkpt lat="43.29801" lon="-0.41701">
        <ele>166.926025</ele>
        <time>2012-03-02T14:23:27Z</time>
      </trkpt>
      <trkpt lat="43.29816" lon="-0.41759">
        <ele>166.445312</ele>
        <time>2012-03-02T14:23:37Z</time>
      </trkpt>
      <trkpt lat="43.29818" lon="-0.41786">
        <ele>166.445312</ele>
        <time>2012-03-02T14:23:41Z</time>
      </trkpt>
      <trkpt lat="43.29828" lon="-0.41815">
        <ele>166.445312</ele>
        <time>2012-03-02T14:23:46Z</time>
      </trkpt>
      <trkpt lat="43.29836" lon="-0.41824">
        <ele>165.964722</ele>
        <time>2012-03-02T14:23:48Z</time>
      </trkpt>
      <trkpt lat="43.29861" lon="-0.41905">
        <ele>165.484131</ele>
        <time>2012-03-02T14:24:00Z</time>
      </trkpt>
      <trkpt lat="43.29877" lon="-0.41935">
        <ele>165.003418</ele>
        <time>2012-03-02T14:24:05Z</time>
      </trkpt>
      <trkpt lat="43.2991" lon="-0.41976">
        <ele>164.042114</ele>
        <time>2012-03-02T14:24:13Z</time>
      </trkpt>
      <trkpt lat="43.29951" lon="-0.42058">
        <ele>163.080811</ele>
        <time>2012-03-02T14:24:26Z</time>
      </trkpt>
      <trkpt lat="43.29965" lon="-0.42078">
        <ele>163.080811</ele>
        <time>2012-03-02T14:24:30Z</time>
      </trkpt>
      <trkpt lat="43.29977" lon="-0.421">
        <ele>163.561523</ele>
        <time>2012-03-02T14:24:34Z</time>
      </trkpt>
      <trkpt lat="43.29994" lon="-0.42211">
        <ele>162.600098</ele>
        <time>2012-03-02T14:24:49Z</time>
      </trkpt>
      <trkpt lat="43.29994" lon="-0.42255">
        <ele>162.600098</ele>
        <time>2012-03-02T14:24:55Z</time>
      </trkpt>
      <trkpt lat="43.30014" lon="-0.42331">
        <ele>162.600098</ele>
        <time>2012-03-02T14:25:06Z</time>
      </trkpt>
      <trkpt lat="43.30019" lon="-0.4236">
        <ele>162.600098</ele>
        <time>2012-03-02T14:25:10Z</time>
      </trkpt>
      <trkpt lat="43.30034" lon="-0.42398">
        <ele>163.080811</ele>
        <time>2012-03-02T14:25:16Z</time>
      </trkpt>
      <trkpt lat="43.30067" lon="-0.42497">
        <ele>163.561523</ele>
        <time>2012-03-02T14:25:31Z</time>
      </trkpt>
      <trkpt lat="43.30084" lon="-0.42528">
        <ele>162.600098</ele>
        <time>2012-03-02T14:25:36Z</time>
      </trkpt>
      <trkpt lat="43.30127" lon="-0.4265">
        <ele>162.600098</ele>
        <time>2012-03-02T14:25:54Z</time>
      </trkpt>
      <trkpt lat="43.30151" lon="-0.42747">
        <ele>161.638916</ele>
        <time>2012-03-02T14:26:08Z</time>
      </trkpt>
      <trkpt lat="43.30163" lon="-0.42797">
        <ele>161.638916</ele>
        <time>2012-03-02T14:26:15Z</time>
      </trkpt>
      <trkpt lat="43.30168" lon="-0.42811">
        <ele>161.638916</ele>
        <time>2012-03-02T14:26:17Z</time>
      </trkpt>
      <trkpt lat="43.30189" lon="-0.42904">
        <ele>160.67749</ele>
        <time>2012-03-02T14:26:31Z</time>
      </trkpt>
      <trkpt lat="43.30221" lon="-0.42989">
        <ele>160.67749</ele>
        <time>2012-03-02T14:26:44Z</time>
      </trkpt>
      <trkpt lat="43.30245" lon="-0.431">
        <ele>160.67749</ele>
        <time>2012-03-02T14:27:00Z</time>
      </trkpt>
      <trkpt lat="43.3026" lon="-0.43155">
        <ele>160.67749</ele>
        <time>2012-03-02T14:27:08Z</time>
      </trkpt>
      <trkpt lat="43.30272" lon="-0.43229">
        <ele>161.638916</ele>
        <time>2012-03-02T14:27:18Z</time>
      </trkpt>
      <trkpt lat="43.30283" lon="-0.43257">
        <ele>161.158203</ele>
        <time>2012-03-02T14:27:22Z</time>
      </trkpt>
      <trkpt lat="43.30339" lon="-0.43367">
        <ele>160.196899</ele>
        <time>2012-03-02T14:27:39Z</time>
      </trkpt>
      <trkpt lat="43.30378" lon="-0.43457">
        <ele>159.716187</ele>
        <time>2012-03-02T14:27:52Z</time>
      </trkpt>
      <trkpt lat="43.30373" lon="-0.43507">
        <ele>160.196899</ele>
        <time>2012-03-02T14:28:00Z</time>
      </trkpt>
      <trkpt lat="43.30374" lon="-0.43544">
        <ele>160.67749</ele>
        <time>2012-03-02T14:28:06Z</time>
      </trkpt>
      <trkpt lat="43.30399" lon="-0.43584">
        <ele>160.196899</ele>
        <time>2012-03-02T14:28:18Z</time>
      </trkpt>
      <trkpt lat="43.30429" lon="-0.43657">
        <ele>161.158203</ele>
        <time>2012-03-02T14:28:33Z</time>
      </trkpt>
      <trkpt lat="43.30439" lon="-0.43689">
        <ele>160.67749</ele>
        <time>2012-03-02T14:28:39Z</time>
      </trkpt>
      <trkpt lat="43.30473" lon="-0.43763">
        <ele>161.158203</ele>
        <time>2012-03-02T14:28:53Z</time>
      </trkpt>
      <trkpt lat="43.30484" lon="-0.43799">
        <ele>160.67749</ele>
        <time>2012-03-02T14:28:59Z</time>
      </trkpt>
      <trkpt lat="43.30487" lon="-0.43821">
        <ele>161.158203</ele>
        <time>2012-03-02T14:29:02Z</time>
      </trkpt>
      <trkpt lat="43.3049" lon="-0.43835">
        <ele>160.67749</ele>
        <time>2012-03-02T14:29:04Z</time>
      </trkpt>
      <trkpt lat="43.30542" lon="-0.43929">
        <ele>159.716187</ele>
        <time>2012-03-02T14:29:20Z</time>
      </trkpt>
      <trkpt lat="43.30552" lon="-0.43946">
        <ele>159.716187</ele>
        <time>2012-03-02T14:29:23Z</time>
      </trkpt>
      <trkpt lat="43.30603" lon="-0.44034">
        <ele>158.754761</ele>
        <time>2012-03-02T14:29:38Z</time>
      </trkpt>
      <trkpt lat="43.3066" lon="-0.44125">
        <ele>157.793579</ele>
        <time>2012-03-02T14:29:54Z</time>
      </trkpt>
      <trkpt lat="43.30719" lon="-0.44233">
        <ele>157.312866</ele>
        <time>2012-03-02T14:30:12Z</time>
      </trkpt>
      <trkpt lat="43.30756" lon="-0.44348">
        <ele>157.312866</ele>
        <time>2012-03-02T14:30:29Z</time>
      </trkpt>
      <trkpt lat="43.3078" lon="-0.44477">
        <ele>156.832153</ele>
        <time>2012-03-02T14:30:47Z</time>
      </trkpt>
      <trkpt lat="43.30797" lon="-0.44541">
        <ele>157.312866</ele>
        <time>2012-03-02T14:30:56Z</time>
      </trkpt>
      <trkpt lat="43.30808" lon="-0.4457">
        <ele>157.312866</ele>
        <time>2012-03-02T14:31:00Z</time>
      </trkpt>
      <trkpt lat="43.30823" lon="-0.44627">
        <ele>159.716187</ele>
        <time>2012-03-02T14:31:10Z</time>
      </trkpt>
      <trkpt lat="43.30831" lon="-0.44643">
        <ele>159.235474</ele>
        <time>2012-03-02T14:31:16Z</time>
      </trkpt>
      <trkpt lat="43.30852" lon="-0.44652">
        <ele>156.832153</ele>
        <time>2012-03-02T14:31:20Z</time>
      </trkpt>
      <trkpt lat="43.3087" lon="-0.44674">
        <ele>155.870972</ele>
        <time>2012-03-02T14:31:24Z</time>
      </trkpt>
      <trkpt lat="43.30884" lon="-0.44709">
        <ele>156.351562</ele>
        <time>2012-03-02T14:31:30Z</time>
      </trkpt>
      <trkpt lat="43.309" lon="-0.4473">
        <ele>156.351562</ele>
        <time>2012-03-02T14:31:35Z</time>
      </trkpt>
      <trkpt lat="43.30921" lon="-0.44746">
        <ele>155.390259</ele>
        <time>2012-03-02T14:31:41Z</time>
      </trkpt>
      <trkpt lat="43.30959" lon="-0.44788">
        <ele>155.390259</ele>
        <time>2012-03-02T14:31:56Z</time>
      </trkpt>
      <trkpt lat="43.30989" lon="-0.44843">
        <ele>155.870972</ele>
        <time>2012-03-02T14:32:06Z</time>
      </trkpt>
      <trkpt lat="43.31063" lon="-0.44908">
        <ele>155.870972</ele>
        <time>2012-03-02T14:32:21Z</time>
      </trkpt>
      <trkpt lat="43.31156" lon="-0.44978">
        <ele>155.870972</ele>
        <time>2012-03-02T14:32:39Z</time>
      </trkpt>
      <trkpt lat="43.31216" lon="-0.4503">
        <ele>155.390259</ele>
        <time>2012-03-02T14:32:51Z</time>
      </trkpt>
      <trkpt lat="43.31243" lon="-0.45047">
        <ele>155.390259</ele>
        <time>2012-03-02T14:32:56Z</time>
      </trkpt>
      <trkpt lat="43.31318" lon="-0.45093">
        <ele>154.909546</ele>
        <time>2012-03-02T14:33:10Z</time>
      </trkpt>
      <trkpt lat="43.31402" lon="-0.45124">
        <ele>153.467651</ele>
        <time>2012-03-02T14:33:25Z</time>
      </trkpt>
      <trkpt lat="43.31426" lon="-0.45128">
        <ele>154.909546</ele>
        <time>2012-03-02T14:33:29Z</time>
      </trkpt>
      <trkpt lat="43.31479" lon="-0.45161">
        <ele>157.312866</ele>
        <time>2012-03-02T14:33:40Z</time>
      </trkpt>
      <trkpt lat="43.31506" lon="-0.45164">
        <ele>155.870972</ele>
        <time>2012-03-02T14:33:45Z</time>
      </trkpt>
      <trkpt lat="43.31554" lon="-0.45188">
        <ele>155.870972</ele>
        <time>2012-03-02T14:33:54Z</time>
      </trkpt>
      <trkpt lat="43.31618" lon="-0.45192">
        <ele>155.870972</ele>
        <time>2012-03-02T14:34:06Z</time>
      </trkpt>
      <trkpt lat="43.31698" lon="-0.45183">
        <ele>154.909546</ele>
        <time>2012-03-02T14:34:20Z</time>
      </trkpt>
      <trkpt lat="43.31786" lon="-0.45218">
        <ele>154.428955</ele>
        <time>2012-03-02T14:34:36Z</time>
      </trkpt>
      <trkpt lat="43.31807" lon="-0.45252">
        <ele>154.428955</ele>
        <time>2012-03-02T14:34:42Z</time>
      </trkpt>
      <trkpt lat="43.31807" lon="-0.45267">
        <ele>154.428955</ele>
        <time>2012-03-02T14:34:44Z</time>
      </trkpt>
      <trkpt lat="43.31815" lon="-0.45303">
        <ele>153.948364</ele>
        <time>2012-03-02T14:34:49Z</time>
      </trkpt>
      <trkpt lat="43.31828" lon="-0.45328">
        <ele>152.506348</ele>
        <time>2012-03-02T14:34:53Z</time>
      </trkpt>
      <trkpt lat="43.31861" lon="-0.45347">
        <ele>152.986938</ele>
        <time>2012-03-02T14:35:00Z</time>
      </trkpt>
      <trkpt lat="43.31902" lon="-0.4541">
        <ele>153.467651</ele>
        <time>2012-03-02T14:35:11Z</time>
      </trkpt>
      <trkpt lat="43.31969" lon="-0.45462">
        <ele>153.467651</ele>
        <time>2012-03-02T14:35:25Z</time>
      </trkpt>
      <trkpt lat="43.32066" lon="-0.45514">
        <ele>153.467651</ele>
        <time>2012-03-02T14:35:43Z</time>
      </trkpt>
      <trkpt lat="43.32155" lon="-0.45553">
        <ele>153.467651</ele>
        <time>2012-03-02T14:35:59Z</time>
      </trkpt>
      <trkpt lat="43.32241" lon="-0.45609">
        <ele>154.428955</ele>
        <time>2012-03-02T14:36:15Z</time>
      </trkpt>
      <trkpt lat="43.32346" lon="-0.45686">
        <ele>152.986938</ele>
        <time>2012-03-02T14:36:34Z</time>
      </trkpt>
      <trkpt lat="43.3245" lon="-0.45756">
        <ele>152.025757</ele>
        <time>2012-03-02T14:36:52Z</time>
      </trkpt>
      <trkpt lat="43.32456" lon="-0.45761">
        <ele>152.506348</ele>
        <time>2012-03-02T14:36:53Z</time>
      </trkpt>
      <trkpt lat="43.32478" lon="-0.45793">
        <ele>152.506348</ele>
        <time>2012-03-02T14:36:58Z</time>
      </trkpt>
      <trkpt lat="43.32563" lon="-0.45882">
        <ele>152.506348</ele>
        <time>2012-03-02T14:37:15Z</time>
      </trkpt>
      <trkpt lat="43.32644" lon="-0.45963">
        <ele>151.544922</ele>
        <time>2012-03-02T14:37:32Z</time>
      </trkpt>
      <trkpt lat="43.32711" lon="-0.46045">
        <ele>150.583618</ele>
        <time>2012-03-02T14:37:47Z</time>
      </trkpt>
      <trkpt lat="43.32731" lon="-0.46073">
        <ele>150.583618</ele>
        <time>2012-03-02T14:37:58Z</time>
      </trkpt>
      <trkpt lat="43.32733" lon="-0.46079">
        <ele>151.064209</ele>
        <time>2012-03-02T14:38:00Z</time>
      </trkpt>
      <trkpt lat="43.32746" lon="-0.461">
        <ele>151.064209</ele>
        <time>2012-03-02T14:38:06Z</time>
      </trkpt>
      <trkpt lat="43.32789" lon="-0.46181">
        <ele>152.025757</ele>
        <time>2012-03-02T14:38:21Z</time>
      </trkpt>
      <trkpt lat="43.32847" lon="-0.46261">
        <ele>151.064209</ele>
        <time>2012-03-02T14:38:36Z</time>
      </trkpt>
      <trkpt lat="43.32912" lon="-0.46346">
        <ele>151.544922</ele>
        <time>2012-03-02T14:38:52Z</time>
      </trkpt>
      <trkpt lat="43.32976" lon="-0.4641">
        <ele>150.583618</ele>
        <time>2012-03-02T14:39:06Z</time>
      </trkpt>
      <trkpt lat="43.32983" lon="-0.4642">
        <ele>150.103027</ele>
        <time>2012-03-02T14:39:08Z</time>
      </trkpt>
      <trkpt lat="43.3301" lon="-0.46439">
        <ele>150.583618</ele>
        <time>2012-03-02T14:39:14Z</time>
      </trkpt>
      <trkpt lat="43.33037" lon="-0.46452">
        <ele>150.103027</ele>
        <time>2012-03-02T14:39:19Z</time>
      </trkpt>
      <trkpt lat="43.33052" lon="-0.46463">
        <ele>150.103027</ele>
        <time>2012-03-02T14:39:22Z</time>
      </trkpt>
      <trkpt lat="43.33069" lon="-0.46485">
        <ele>150.583618</ele>
        <time>2012-03-02T14:39:26Z</time>
      </trkpt>
      <trkpt lat="43.33098" lon="-0.46532">
        <ele>150.103027</ele>
        <time>2012-03-02T14:39:34Z</time>
      </trkpt>
      <trkpt lat="43.33112" lon="-0.46568">
        <ele>149.141602</ele>
        <time>2012-03-02T14:39:38Z</time>
      </trkpt>
      <trkpt lat="43.33108" lon="-0.4662">
        <ele>149.622314</ele>
        <time>2012-03-02T14:39:47Z</time>
      </trkpt>
      <trkpt lat="43.33092" lon="-0.46635">
        <ele>149.622314</ele>
        <time>2012-03-02T14:39:51Z</time>
      </trkpt>
      <trkpt lat="43.33083" lon="-0.46643">
        <ele>149.141602</ele>
        <time>2012-03-02T14:39:53Z</time>
      </trkpt>
      <trkpt lat="43.33069" lon="-0.46666">
        <ele>149.141602</ele>
        <time>2012-03-02T14:39:57Z</time>
      </trkpt>
      <trkpt lat="43.33064" lon="-0.4668">
        <ele>149.141602</ele>
        <time>2012-03-02T14:39:59Z</time>
      </trkpt>
      <trkpt lat="43.33037" lon="-0.4672">
        <ele>148.661011</ele>
        <time>2012-03-02T14:40:06Z</time>
      </trkpt>
      <trkpt lat="43.32986" lon="-0.46766">
        <ele>149.622314</ele>
        <time>2012-03-02T14:40:17Z</time>
      </trkpt>
      <trkpt lat="43.32925" lon="-0.46843">
        <ele>149.141602</ele>
        <time>2012-03-02T14:40:31Z</time>
      </trkpt>
      <trkpt lat="43.329" lon="-0.46863">
        <ele>148.661011</ele>
        <time>2012-03-02T14:40:36Z</time>
      </trkpt>
      <trkpt lat="43.3285" lon="-0.46942">
        <ele>149.141602</ele>
        <time>2012-03-02T14:40:49Z</time>
      </trkpt>
      <trkpt lat="43.32812" lon="-0.47042">
        <ele>148.661011</ele>
        <time>2012-03-02T14:41:04Z</time>
      </trkpt>
      <trkpt lat="43.3281" lon="-0.47049">
        <ele>149.622314</ele>
        <time>2012-03-02T14:41:05Z</time>
      </trkpt>
      <trkpt lat="43.32817" lon="-0.47151">
        <ele>148.18042</ele>
        <time>2012-03-02T14:41:18Z</time>
      </trkpt>
      <trkpt lat="43.32816" lon="-0.47269">
        <ele>147.699707</ele>
        <time>2012-03-02T14:41:32Z</time>
      </trkpt>
      <trkpt lat="43.32838" lon="-0.4742">
        <ele>146.738403</ele>
        <time>2012-03-02T14:41:50Z</time>
      </trkpt>
      <trkpt lat="43.32868" lon="-0.47498">
        <ele>146.738403</ele>
        <time>2012-03-02T14:42:02Z</time>
      </trkpt>
      <trkpt lat="43.32861" lon="-0.47521">
        <ele>146.738403</ele>
        <time>2012-03-02T14:42:07Z</time>
      </trkpt>
      <trkpt lat="43.32841" lon="-0.47532">
        <ele>146.738403</ele>
        <time>2012-03-02T14:42:11Z</time>
      </trkpt>
      <trkpt lat="43.32833" lon="-0.47566">
        <ele>146.738403</ele>
        <time>2012-03-02T14:42:17Z</time>
      </trkpt>
      <trkpt lat="43.32875" lon="-0.47678">
        <ele>146.257812</ele>
        <time>2012-03-02T14:42:33Z</time>
      </trkpt>
      <trkpt lat="43.32928" lon="-0.47811">
        <ele>146.738403</ele>
        <time>2012-03-02T14:42:52Z</time>
      </trkpt>
      <trkpt lat="43.32968" lon="-0.47909">
        <ele>146.257812</ele>
        <time>2012-03-02T14:43:06Z</time>
      </trkpt>
      <trkpt lat="43.32989" lon="-0.47948">
        <ele>146.738403</ele>
        <time>2012-03-02T14:43:12Z</time>
      </trkpt>
      <trkpt lat="43.33029" lon="-0.48067">
        <ele>146.257812</ele>
        <time>2012-03-02T14:43:29Z</time>
      </trkpt>
      <trkpt lat="43.3304" lon="-0.48086">
        <ele>146.257812</ele>
        <time>2012-03-02T14:43:32Z</time>
      </trkpt>
      <trkpt lat="43.33048" lon="-0.48111">
        <ele>145.7771</ele>
        <time>2012-03-02T14:43:36Z</time>
      </trkpt>
      <trkpt lat="43.33061" lon="-0.48191">
        <ele>145.7771</ele>
        <time>2012-03-02T14:43:47Z</time>
      </trkpt>
      <trkpt lat="43.33059" lon="-0.48216">
        <ele>145.7771</ele>
        <time>2012-03-02T14:43:51Z</time>
      </trkpt>
      <trkpt lat="43.33048" lon="-0.4825">
        <ele>145.296387</ele>
        <time>2012-03-02T14:44:01Z</time>
      </trkpt>
      <trkpt lat="43.33053" lon="-0.48275">
        <ele>145.296387</ele>
        <time>2012-03-02T14:44:08Z</time>
      </trkpt>
      <trkpt lat="43.33085" lon="-0.48344">
        <ele>144.335205</ele>
        <time>2012-03-02T14:44:22Z</time>
      </trkpt>
      <trkpt lat="43.33092" lon="-0.48354">
        <ele>144.815796</ele>
        <time>2012-03-02T14:44:24Z</time>
      </trkpt>
      <trkpt lat="43.33101" lon="-0.48379">
        <ele>144.815796</ele>
        <time>2012-03-02T14:44:28Z</time>
      </trkpt>
      <trkpt lat="43.33111" lon="-0.48403">
        <ele>144.335205</ele>
        <time>2012-03-02T14:44:32Z</time>
      </trkpt>
      <trkpt lat="43.33119" lon="-0.48413">
        <ele>144.335205</ele>
        <time>2012-03-02T14:44:34Z</time>
      </trkpt>
      <trkpt lat="43.33162" lon="-0.48431">
        <ele>144.335205</ele>
        <time>2012-03-02T14:44:42Z</time>
      </trkpt>
      <trkpt lat="43.33187" lon="-0.4845">
        <ele>143.373657</ele>
        <time>2012-03-02T14:44:47Z</time>
      </trkpt>
      <trkpt lat="43.33198" lon="-0.48467">
        <ele>142.412476</ele>
        <time>2012-03-02T14:44:50Z</time>
      </trkpt>
      <trkpt lat="43.33194" lon="-0.48538">
        <ele>143.373657</ele>
        <time>2012-03-02T14:44:59Z</time>
      </trkpt>
      <trkpt lat="43.33193" lon="-0.48586">
        <ele>142.893066</ele>
        <time>2012-03-02T14:45:05Z</time>
      </trkpt>
      <trkpt lat="43.33204" lon="-0.48617">
        <ele>142.893066</ele>
        <time>2012-03-02T14:45:09Z</time>
      </trkpt>
      <trkpt lat="43.33266" lon="-0.48708">
        <ele>142.893066</ele>
        <time>2012-03-02T14:45:24Z</time>
      </trkpt>
      <trkpt lat="43.33294" lon="-0.4874">
        <ele>142.893066</ele>
        <time>2012-03-02T14:45:30Z</time>
      </trkpt>
      <trkpt lat="43.33306" lon="-0.48767">
        <ele>141.931763</ele>
        <time>2012-03-02T14:45:34Z</time>
      </trkpt>
      <trkpt lat="43.33321" lon="-0.48802">
        <ele>142.893066</ele>
        <time>2012-03-02T14:45:39Z</time>
      </trkpt>
      <trkpt lat="43.33361" lon="-0.48847">
        <ele>142.893066</ele>
        <time>2012-03-02T14:45:49Z</time>
      </trkpt>
      <trkpt lat="43.33389" lon="-0.4885">
        <ele>143.373657</ele>
        <time>2012-03-02T14:45:55Z</time>
      </trkpt>
      <trkpt lat="43.33418" lon="-0.48828">
        <ele>142.412476</ele>
        <time>2012-03-02T14:46:01Z</time>
      </trkpt>
      <trkpt lat="43.33441" lon="-0.48814">
        <ele>141.931763</ele>
        <time>2012-03-02T14:46:05Z</time>
      </trkpt>
      <trkpt lat="43.33477" lon="-0.48767">
        <ele>140.970459</ele>
        <time>2012-03-02T14:46:13Z</time>
      </trkpt>
      <trkpt lat="43.33483" lon="-0.48767">
        <ele>140.489868</ele>
        <time>2012-03-02T14:46:14Z</time>
      </trkpt>
      <trkpt lat="43.33495" lon="-0.48801">
        <ele>138.086548</ele>
        <time>2012-03-02T14:46:18Z</time>
      </trkpt>
      <trkpt lat="43.33501" lon="-0.48836">
        <ele>138.567261</ele>
        <time>2012-03-02T14:46:22Z</time>
      </trkpt>
      <trkpt lat="43.3351" lon="-0.48864">
        <ele>139.047852</ele>
        <time>2012-03-02T14:46:26Z</time>
      </trkpt>
      <trkpt lat="43.33529" lon="-0.48972">
        <ele>138.567261</ele>
        <time>2012-03-02T14:46:41Z</time>
      </trkpt>
      <trkpt lat="43.33529" lon="-0.49001">
        <ele>138.567261</ele>
        <time>2012-03-02T14:46:45Z</time>
      </trkpt>
      <trkpt lat="43.33542" lon="-0.49078">
        <ele>140.489868</ele>
        <time>2012-03-02T14:46:56Z</time>
      </trkpt>
      <trkpt lat="43.33578" lon="-0.49143">
        <ele>139.528442</ele>
        <time>2012-03-02T14:47:08Z</time>
      </trkpt>
      <trkpt lat="43.33614" lon="-0.49184">
        <ele>140.489868</ele>
        <time>2012-03-02T14:47:16Z</time>
      </trkpt>
      <trkpt lat="43.33625" lon="-0.49218">
        <ele>140.489868</ele>
        <time>2012-03-02T14:47:21Z</time>
      </trkpt>
      <trkpt lat="43.33629" lon="-0.49251">
        <ele>139.528442</ele>
        <time>2012-03-02T14:47:25Z</time>
      </trkpt>
      <trkpt lat="43.33651" lon="-0.49286">
        <ele>139.528442</ele>
        <time>2012-03-02T14:47:31Z</time>
      </trkpt>
      <trkpt lat="43.33672" lon="-0.49295">
        <ele>139.528442</ele>
        <time>2012-03-02T14:47:35Z</time>
      </trkpt>
      <trkpt lat="43.33698" lon="-0.49324">
        <ele>139.047852</ele>
        <time>2012-03-02T14:47:41Z</time>
      </trkpt>
      <trkpt lat="43.3372" lon="-0.49417">
        <ele>139.047852</ele>
        <time>2012-03-02T14:47:53Z</time>
      </trkpt>
      <trkpt lat="43.33726" lon="-0.49432">
        <ele>139.047852</ele>
        <time>2012-03-02T14:47:55Z</time>
      </trkpt>
      <trkpt lat="43.33757" lon="-0.4946">
        <ele>138.086548</ele>
        <time>2012-03-02T14:48:02Z</time>
      </trkpt>
      <trkpt lat="43.33785" lon="-0.49481">
        <ele>138.086548</ele>
        <time>2012-03-02T14:48:08Z</time>
      </trkpt>
      <trkpt lat="43.33798" lon="-0.49509">
        <ele>138.086548</ele>
        <time>2012-03-02T14:48:12Z</time>
      </trkpt>
      <trkpt lat="43.33806" lon="-0.49532">
        <ele>138.567261</ele>
        <time>2012-03-02T14:48:15Z</time>
      </trkpt>
      <trkpt lat="43.33812" lon="-0.49546">
        <ele>138.567261</ele>
        <time>2012-03-02T14:48:17Z</time>
      </trkpt>
      <trkpt lat="43.33827" lon="-0.4958">
        <ele>138.086548</ele>
        <time>2012-03-02T14:48:22Z</time>
      </trkpt>
      <trkpt lat="43.33839" lon="-0.4967">
        <ele>138.086548</ele>
        <time>2012-03-02T14:48:34Z</time>
      </trkpt>
      <trkpt lat="43.33856" lon="-0.49716">
        <ele>138.086548</ele>
        <time>2012-03-02T14:48:42Z</time>
      </trkpt>
      <trkpt lat="43.33855" lon="-0.49739">
        <ele>137.125244</ele>
        <time>2012-03-02T14:48:46Z</time>
      </trkpt>
      <trkpt lat="43.33846" lon="-0.49785">
        <ele>137.125244</ele>
        <time>2012-03-02T14:48:57Z</time>
      </trkpt>
      <trkpt lat="43.33871" lon="-0.49815">
        <ele>136.16394</ele>
        <time>2012-03-02T14:49:10Z</time>
      </trkpt>
      <trkpt lat="43.33894" lon="-0.4986">
        <ele>138.086548</ele>
        <time>2012-03-02T14:49:22Z</time>
      </trkpt>
      <trkpt lat="43.33904" lon="-0.49884">
        <ele>138.567261</ele>
        <time>2012-03-02T14:49:27Z</time>
      </trkpt>
      <trkpt lat="43.33921" lon="-0.49903">
        <ele>139.047852</ele>
        <time>2012-03-02T14:49:33Z</time>
      </trkpt>
      <trkpt lat="43.33936" lon="-0.49917">
        <ele>137.605835</ele>
        <time>2012-03-02T14:49:40Z</time>
      </trkpt>
      <trkpt lat="43.33936" lon="-0.49921">
        <ele>136.644653</ele>
        <time>2012-03-02T14:49:45Z</time>
      </trkpt>
      <trkpt lat="43.3396" lon="-0.49965">
        <ele>136.16394</ele>
        <time>2012-03-02T14:49:59Z</time>
      </trkpt>
      <trkpt lat="43.33974" lon="-0.50025">
        <ele>135.683105</ele>
        <time>2012-03-02T14:50:12Z</time>
      </trkpt>
      <trkpt lat="43.34003" lon="-0.5012">
        <ele>136.644653</ele>
        <time>2012-03-02T14:50:27Z</time>
      </trkpt>
      <trkpt lat="43.34006" lon="-0.50127">
        <ele>136.644653</ele>
        <time>2012-03-02T14:50:28Z</time>
      </trkpt>
      <trkpt lat="43.34068" lon="-0.50203">
        <ele>136.644653</ele>
        <time>2012-03-02T14:50:42Z</time>
      </trkpt>
      <trkpt lat="43.34121" lon="-0.50265">
        <ele>136.644653</ele>
        <time>2012-03-02T14:50:56Z</time>
      </trkpt>
      <trkpt lat="43.34156" lon="-0.50309">
        <ele>137.125244</ele>
        <time>2012-03-02T14:51:05Z</time>
      </trkpt>
      <trkpt lat="43.34176" lon="-0.50323">
        <ele>136.644653</ele>
        <time>2012-03-02T14:51:09Z</time>
      </trkpt>
      <trkpt lat="43.34252" lon="-0.50379">
        <ele>136.16394</ele>
        <time>2012-03-02T14:51:24Z</time>
      </trkpt>
      <trkpt lat="43.34308" lon="-0.50442">
        <ele>136.16394</ele>
        <time>2012-03-02T14:51:37Z</time>
      </trkpt>
      <trkpt lat="43.34336" lon="-0.50477">
        <ele>136.16394</ele>
        <time>2012-03-02T14:51:46Z</time>
      </trkpt>
      <trkpt lat="43.34368" lon="-0.50492">
        <ele>135.683105</ele>
        <time>2012-03-02T14:51:56Z</time>
      </trkpt>
      <trkpt lat="43.34395" lon="-0.50504">
        <ele>136.16394</ele>
        <time>2012-03-02T14:52:03Z</time>
      </trkpt>
      <trkpt lat="43.3442" lon="-0.50523">
        <ele>136.16394</ele>
        <time>2012-03-02T14:52:10Z</time>
      </trkpt>
      <trkpt lat="43.34439" lon="-0.5055">
        <ele>136.16394</ele>
        <time>2012-03-02T14:52:16Z</time>
      </trkpt>
      <trkpt lat="43.34464" lon="-0.50573">
        <ele>135.683105</ele>
        <time>2012-03-02T14:52:22Z</time>
      </trkpt>
      <trkpt lat="43.3448" lon="-0.50586">
        <ele>136.16394</ele>
        <time>2012-03-02T14:52:26Z</time>
      </trkpt>
      <trkpt lat="43.34491" lon="-0.50597">
        <ele>136.16394</ele>
        <time>2012-03-02T14:52:29Z</time>
      </trkpt>
      <trkpt lat="43.34531" lon="-0.5065">
        <ele>136.16394</ele>
        <time>2012-03-02T14:52:42Z</time>
      </trkpt>
      <trkpt lat="43.34539" lon="-0.50661">
        <ele>134.721924</ele>
        <time>2012-03-02T14:52:45Z</time>
      </trkpt>
      <trkpt lat="43.34544" lon="-0.5067">
        <ele>134.241211</ele>
        <time>2012-03-02T14:52:47Z</time>
      </trkpt>
      <trkpt lat="43.34568" lon="-0.50699">
        <ele>134.721924</ele>
        <time>2012-03-02T14:52:54Z</time>
      </trkpt>
      <trkpt lat="43.34581" lon="-0.50717">
        <ele>135.202515</ele>
        <time>2012-03-02T14:52:58Z</time>
      </trkpt>
      <trkpt lat="43.34598" lon="-0.50738">
        <ele>134.721924</ele>
        <time>2012-03-02T14:53:03Z</time>
      </trkpt>
      <trkpt lat="43.34613" lon="-0.50775">
        <ele>134.721924</ele>
        <time>2012-03-02T14:53:09Z</time>
      </trkpt>
      <trkpt lat="43.34624" lon="-0.50799">
        <ele>134.241211</ele>
        <time>2012-03-02T14:53:13Z</time>
      </trkpt>
      <trkpt lat="43.34634" lon="-0.50816">
        <ele>134.721924</ele>
        <time>2012-03-02T14:53:16Z</time>
      </trkpt>
      <trkpt lat="43.34672" lon="-0.50861">
        <ele>133.760498</ele>
        <time>2012-03-02T14:53:26Z</time>
      </trkpt>
      <trkpt lat="43.34688" lon="-0.5089">
        <ele>133.279907</ele>
        <time>2012-03-02T14:53:31Z</time>
      </trkpt>
      <trkpt lat="43.34704" lon="-0.50924">
        <ele>132.799316</ele>
        <time>2012-03-02T14:53:37Z</time>
      </trkpt>
      <trkpt lat="43.34732" lon="-0.50968">
        <ele>133.279907</ele>
        <time>2012-03-02T14:53:48Z</time>
      </trkpt>
      <trkpt lat="43.34741" lon="-0.50987">
        <ele>133.279907</ele>
        <time>2012-03-02T14:53:52Z</time>
      </trkpt>
      <trkpt lat="43.34759" lon="-0.51019">
        <ele>132.799316</ele>
        <time>2012-03-02T14:54:00Z</time>
      </trkpt>
      <trkpt lat="43.34753" lon="-0.51047">
        <ele>132.799316</ele>
        <time>2012-03-02T14:54:06Z</time>
      </trkpt>
      <trkpt lat="43.34741" lon="-0.51081">
        <ele>132.318604</ele>
        <time>2012-03-02T14:54:13Z</time>
      </trkpt>
      <trkpt lat="43.34723" lon="-0.5115">
        <ele>131.837891</ele>
        <time>2012-03-02T14:54:26Z</time>
      </trkpt>
      <trkpt lat="43.34697" lon="-0.51243">
        <ele>131.837891</ele>
        <time>2012-03-02T14:54:42Z</time>
      </trkpt>
      <trkpt lat="43.34707" lon="-0.51257">
        <ele>131.837891</ele>
        <time>2012-03-02T14:54:47Z</time>
      </trkpt>
      <trkpt lat="43.34773" lon="-0.51281">
        <ele>132.318604</ele>
        <time>2012-03-02T14:55:02Z</time>
      </trkpt>
      <trkpt lat="43.34863" lon="-0.51321">
        <ele>131.3573</ele>
        <time>2012-03-02T14:55:20Z</time>
      </trkpt>
      <trkpt lat="43.3496" lon="-0.51392">
        <ele>132.318604</ele>
        <time>2012-03-02T14:55:41Z</time>
      </trkpt>
      <trkpt lat="43.34997" lon="-0.51417">
        <ele>131.3573</ele>
        <time>2012-03-02T14:55:49Z</time>
      </trkpt>
      <trkpt lat="43.35027" lon="-0.51414">
        <ele>130.876709</ele>
        <time>2012-03-02T14:55:55Z</time>
      </trkpt>
      <trkpt lat="43.35044" lon="-0.51399">
        <ele>130.395996</ele>
        <time>2012-03-02T14:55:59Z</time>
      </trkpt>
      <trkpt lat="43.35073" lon="-0.5142">
        <ele>131.3573</ele>
        <time>2012-03-02T14:56:07Z</time>
      </trkpt>
      <trkpt lat="43.35077" lon="-0.51441">
        <ele>130.876709</ele>
        <time>2012-03-02T14:56:10Z</time>
      </trkpt>
      <trkpt lat="43.35098" lon="-0.51474">
        <ele>130.395996</ele>
        <time>2012-03-02T14:56:16Z</time>
      </trkpt>
      <trkpt lat="43.35122" lon="-0.51504">
        <ele>129.915283</ele>
        <time>2012-03-02T14:56:22Z</time>
      </trkpt>
      <trkpt lat="43.35146" lon="-0.51512">
        <ele>130.395996</ele>
        <time>2012-03-02T14:56:27Z</time>
      </trkpt>
      <trkpt lat="43.35196" lon="-0.51508">
        <ele>130.395996</ele>
        <time>2012-03-02T14:56:37Z</time>
      </trkpt>
      <trkpt lat="43.35217" lon="-0.51498">
        <ele>129.915283</ele>
        <time>2012-03-02T14:56:41Z</time>
      </trkpt>
      <trkpt lat="43.35241" lon="-0.51498">
        <ele>129.915283</ele>
        <time>2012-03-02T14:56:46Z</time>
      </trkpt>
      <trkpt lat="43.35286" lon="-0.51555">
        <ele>128.954102</ele>
        <time>2012-03-02T14:56:58Z</time>
      </trkpt>
      <trkpt lat="43.35319" lon="-0.51595">
        <ele>129.915283</ele>
        <time>2012-03-02T14:57:07Z</time>
      </trkpt>
      <trkpt lat="43.35356" lon="-0.51619">
        <ele>130.395996</ele>
        <time>2012-03-02T14:57:15Z</time>
      </trkpt>
      <trkpt lat="43.35404" lon="-0.51657">
        <ele>129.915283</ele>
        <time>2012-03-02T14:57:26Z</time>
      </trkpt>
      <trkpt lat="43.35429" lon="-0.51676">
        <ele>130.876709</ele>
        <time>2012-03-02T14:57:32Z</time>
      </trkpt>
      <trkpt lat="43.35454" lon="-0.5168">
        <ele>131.837891</ele>
        <time>2012-03-02T14:57:38Z</time>
      </trkpt>
      <trkpt lat="43.35542" lon="-0.51668">
        <ele>130.395996</ele>
        <time>2012-03-02T14:57:57Z</time>
      </trkpt>
      <trkpt lat="43.35564" lon="-0.51671">
        <ele>130.876709</ele>
        <time>2012-03-02T14:58:02Z</time>
      </trkpt>
      <trkpt lat="43.35584" lon="-0.51682">
        <ele>130.876709</ele>
        <time>2012-03-02T14:58:07Z</time>
      </trkpt>
      <trkpt lat="43.3564" lon="-0.51725">
        <ele>128.954102</ele>
        <time>2012-03-02T14:58:20Z</time>
      </trkpt>
      <trkpt lat="43.35652" lon="-0.51738">
        <ele>128.473389</ele>
        <time>2012-03-02T14:58:23Z</time>
      </trkpt>
      <trkpt lat="43.35695" lon="-0.51775">
        <ele>127.511963</ele>
        <time>2012-03-02T14:58:34Z</time>
      </trkpt>
      <trkpt lat="43.35693" lon="-0.51809">
        <ele>126.550659</ele>
        <time>2012-03-02T14:58:41Z</time>
      </trkpt>
      <trkpt lat="43.35631" lon="-0.51838">
        <ele>127.992554</ele>
        <time>2012-03-02T14:58:57Z</time>
      </trkpt>
      <trkpt lat="43.35627" lon="-0.5184">
        <ele>127.511963</ele>
        <time>2012-03-02T14:58:58Z</time>
      </trkpt>
      <trkpt lat="43.35606" lon="-0.51854">
        <ele>127.511963</ele>
        <time>2012-03-02T14:59:03Z</time>
      </trkpt>
      <trkpt lat="43.35585" lon="-0.51891">
        <ele>127.511963</ele>
        <time>2012-03-02T14:59:12Z</time>
      </trkpt>
      <trkpt lat="43.35575" lon="-0.51901">
        <ele>127.511963</ele>
        <time>2012-03-02T14:59:15Z</time>
      </trkpt>
      <trkpt lat="43.35571" lon="-0.5193">
        <ele>127.992554</ele>
        <time>2012-03-02T14:59:21Z</time>
      </trkpt>
      <trkpt lat="43.35579" lon="-0.51945">
        <ele>127.031372</ele>
        <time>2012-03-02T14:59:24Z</time>
      </trkpt>
      <trkpt lat="43.35585" lon="-0.51954">
        <ele>127.511963</ele>
        <time>2012-03-02T14:59:26Z</time>
      </trkpt>
      <trkpt lat="43.35592" lon="-0.51969">
        <ele>127.511963</ele>
        <time>2012-03-02T14:59:29Z</time>
      </trkpt>
      <trkpt lat="43.3563" lon="-0.52051">
        <ele>127.511963</ele>
        <time>2012-03-02T14:59:46Z</time>
      </trkpt>
      <trkpt lat="43.35649" lon="-0.52124">
        <ele>127.031372</ele>
        <time>2012-03-02T15:00:00Z</time>
      </trkpt>
      <trkpt lat="43.35637" lon="-0.52188">
        <ele>126.069946</ele>
        <time>2012-03-02T15:00:14Z</time>
      </trkpt>
      <trkpt lat="43.35634" lon="-0.52192">
        <ele>126.550659</ele>
        <time>2012-03-02T15:00:15Z</time>
      </trkpt>
      <trkpt lat="43.35606" lon="-0.52197">
        <ele>126.069946</ele>
        <time>2012-03-02T15:00:22Z</time>
      </trkpt>
      <trkpt lat="43.3556" lon="-0.52182">
        <ele>126.069946</ele>
        <time>2012-03-02T15:00:34Z</time>
      </trkpt>
      <trkpt lat="43.35512" lon="-0.52233">
        <ele>126.550659</ele>
        <time>2012-03-02T15:00:50Z</time>
      </trkpt>
      <trkpt lat="43.35483" lon="-0.52328">
        <ele>127.511963</ele>
        <time>2012-03-02T15:01:08Z</time>
      </trkpt>
      <trkpt lat="43.35464" lon="-0.52437">
        <ele>127.031372</ele>
        <time>2012-03-02T15:01:25Z</time>
      </trkpt>
      <trkpt lat="43.35475" lon="-0.52588">
        <ele>126.550659</ele>
        <time>2012-03-02T15:01:47Z</time>
      </trkpt>
      <trkpt lat="43.35502" lon="-0.52737">
        <ele>126.069946</ele>
        <time>2012-03-02T15:02:09Z</time>
      </trkpt>
      <trkpt lat="43.35511" lon="-0.52785">
        <ele>125.589355</ele>
        <time>2012-03-02T15:02:16Z</time>
      </trkpt>
      <trkpt lat="43.35509" lon="-0.52911">
        <ele>125.108765</ele>
        <time>2012-03-02T15:02:33Z</time>
      </trkpt>
      <trkpt lat="43.35507" lon="-0.52992">
        <ele>125.589355</ele>
        <time>2012-03-02T15:02:45Z</time>
      </trkpt>
      <trkpt lat="43.35515" lon="-0.53022">
        <ele>125.589355</ele>
        <time>2012-03-02T15:02:51Z</time>
      </trkpt>
      <trkpt lat="43.35545" lon="-0.53105">
        <ele>125.589355</ele>
        <time>2012-03-02T15:03:05Z</time>
      </trkpt>
      <trkpt lat="43.35567" lon="-0.53227">
        <ele>125.108765</ele>
        <time>2012-03-02T15:03:23Z</time>
      </trkpt>
      <trkpt lat="43.35576" lon="-0.53261">
        <ele>124.628052</ele>
        <time>2012-03-02T15:03:28Z</time>
      </trkpt>
      <trkpt lat="43.35631" lon="-0.53373">
        <ele>124.147339</ele>
        <time>2012-03-02T15:03:46Z</time>
      </trkpt>
      <trkpt lat="43.35699" lon="-0.53512">
        <ele>123.186157</ele>
        <time>2012-03-02T15:04:08Z</time>
      </trkpt>
      <trkpt lat="43.35712" lon="-0.5362">
        <ele>122.705444</ele>
        <time>2012-03-02T15:04:23Z</time>
      </trkpt>
      <trkpt lat="43.35717" lon="-0.53695">
        <ele>122.224731</ele>
        <time>2012-03-02T15:04:33Z</time>
      </trkpt>
      <trkpt lat="43.35725" lon="-0.53726">
        <ele>122.224731</ele>
        <time>2012-03-02T15:04:37Z</time>
      </trkpt>
      <trkpt lat="43.35772" lon="-0.53812">
        <ele>122.705444</ele>
        <time>2012-03-02T15:04:51Z</time>
      </trkpt>
      <trkpt lat="43.35775" lon="-0.53818">
        <ele>122.705444</ele>
        <time>2012-03-02T15:04:52Z</time>
      </trkpt>
      <trkpt lat="43.35836" lon="-0.53897">
        <ele>122.224731</ele>
        <time>2012-03-02T15:05:08Z</time>
      </trkpt>
      <trkpt lat="43.35852" lon="-0.5392">
        <ele>122.224731</ele>
        <time>2012-03-02T15:05:12Z</time>
      </trkpt>
      <trkpt lat="43.35869" lon="-0.5396">
        <ele>121.744141</ele>
        <time>2012-03-02T15:05:18Z</time>
      </trkpt>
      <trkpt lat="43.35874" lon="-0.53973">
        <ele>122.224731</ele>
        <time>2012-03-02T15:05:20Z</time>
      </trkpt>
      <trkpt lat="43.35879" lon="-0.53986">
        <ele>122.705444</ele>
        <time>2012-03-02T15:05:22Z</time>
      </trkpt>
      <trkpt lat="43.35903" lon="-0.54104">
        <ele>121.744141</ele>
        <time>2012-03-02T15:05:39Z</time>
      </trkpt>
      <trkpt lat="43.35906" lon="-0.5411">
        <ele>122.224731</ele>
        <time>2012-03-02T15:05:40Z</time>
      </trkpt>
      <trkpt lat="43.35941" lon="-0.54145">
        <ele>122.224731</ele>
        <time>2012-03-02T15:05:48Z</time>
      </trkpt>
      <trkpt lat="43.35964" lon="-0.54164">
        <ele>121.744141</ele>
        <time>2012-03-02T15:05:53Z</time>
      </trkpt>
      <trkpt lat="43.36007" lon="-0.54223">
        <ele>121.744141</ele>
        <time>2012-03-02T15:06:04Z</time>
      </trkpt>
      <trkpt lat="43.36039" lon="-0.54284">
        <ele>122.224731</ele>
        <time>2012-03-02T15:06:18Z</time>
      </trkpt>
      <trkpt lat="43.36091" lon="-0.54357">
        <ele>121.744141</ele>
        <time>2012-03-02T15:06:36Z</time>
      </trkpt>
      <trkpt lat="43.36109" lon="-0.54386">
        <ele>121.744141</ele>
        <time>2012-03-02T15:06:42Z</time>
      </trkpt>
      <trkpt lat="43.36161" lon="-0.54475">
        <ele>121.744141</ele>
        <time>2012-03-02T15:06:59Z</time>
      </trkpt>
      <trkpt lat="43.36178" lon="-0.54491">
        <ele>121.744141</ele>
        <time>2012-03-02T15:07:03Z</time>
      </trkpt>
      <trkpt lat="43.36187" lon="-0.54497">
        <ele>121.26355</ele>
        <time>2012-03-02T15:07:05Z</time>
      </trkpt>
      <trkpt lat="43.36203" lon="-0.54531">
        <ele>121.744141</ele>
        <time>2012-03-02T15:07:11Z</time>
      </trkpt>
      <trkpt lat="43.36211" lon="-0.54663">
        <ele>121.26355</ele>
        <time>2012-03-02T15:07:30Z</time>
      </trkpt>
      <trkpt lat="43.36211" lon="-0.54713">
        <ele>121.26355</ele>
        <time>2012-03-02T15:07:37Z</time>
      </trkpt>
      <trkpt lat="43.36221" lon="-0.54772">
        <ele>120.782837</ele>
        <time>2012-03-02T15:07:45Z</time>
      </trkpt>
      <trkpt lat="43.3625" lon="-0.5485">
        <ele>121.26355</ele>
        <time>2012-03-02T15:08:00Z</time>
      </trkpt>
      <trkpt lat="43.36264" lon="-0.54923">
        <ele>120.782837</ele>
        <time>2012-03-02T15:08:13Z</time>
      </trkpt>
      <trkpt lat="43.36262" lon="-0.54976">
        <ele>120.782837</ele>
        <time>2012-03-02T15:08:21Z</time>
      </trkpt>
      <trkpt lat="43.36262" lon="-0.55012">
        <ele>120.782837</ele>
        <time>2012-03-02T15:08:26Z</time>
      </trkpt>
      <trkpt lat="43.36269" lon="-0.55047">
        <ele>120.782837</ele>
        <time>2012-03-02T15:08:32Z</time>
      </trkpt>
      <trkpt lat="43.36299" lon="-0.55106">
        <ele>120.782837</ele>
        <time>2012-03-02T15:08:47Z</time>
      </trkpt>
      <trkpt lat="43.36318" lon="-0.55137">
        <ele>120.302124</ele>
        <time>2012-03-02T15:08:54Z</time>
      </trkpt>
      <trkpt lat="43.36378" lon="-0.55201">
        <ele>121.26355</ele>
        <time>2012-03-02T15:09:11Z</time>
      </trkpt>
      <trkpt lat="43.36443" lon="-0.55273">
        <ele>121.26355</ele>
        <time>2012-03-02T15:09:29Z</time>
      </trkpt>
      <trkpt lat="43.3647" lon="-0.55299">
        <ele>120.782837</ele>
        <time>2012-03-02T15:09:36Z</time>
      </trkpt>
      <trkpt lat="43.36524" lon="-0.55388">
        <ele>119.34082</ele>
        <time>2012-03-02T15:09:53Z</time>
      </trkpt>
      <trkpt lat="43.36582" lon="-0.55503">
        <ele>120.302124</ele>
        <time>2012-03-02T15:10:15Z</time>
      </trkpt>
      <trkpt lat="43.3664" lon="-0.55621">
        <ele>118.860107</ele>
        <time>2012-03-02T15:10:37Z</time>
      </trkpt>
      <trkpt lat="43.36682" lon="-0.55695">
        <ele>117.898804</ele>
        <time>2012-03-02T15:10:54Z</time>
      </trkpt>
      <trkpt lat="43.36673" lon="-0.55715">
        <ele>118.379395</ele>
        <time>2012-03-02T15:10:59Z</time>
      </trkpt>
      <trkpt lat="43.36602" lon="-0.55763">
        <ele>119.34082</ele>
        <time>2012-03-02T15:11:16Z</time>
      </trkpt>
      <trkpt lat="43.3651" lon="-0.55801">
        <ele>119.821411</ele>
        <time>2012-03-02T15:11:35Z</time>
      </trkpt>
      <trkpt lat="43.36402" lon="-0.55856">
        <ele>119.34082</ele>
        <time>2012-03-02T15:11:56Z</time>
      </trkpt>
      <trkpt lat="43.36336" lon="-0.5591">
        <ele>118.860107</ele>
        <time>2012-03-02T15:12:12Z</time>
      </trkpt>
      <trkpt lat="43.36241" lon="-0.55986">
        <ele>119.821411</ele>
        <time>2012-03-02T15:12:31Z</time>
      </trkpt>
      <trkpt lat="43.36137" lon="-0.56052">
        <ele>119.821411</ele>
        <time>2012-03-02T15:12:51Z</time>
      </trkpt>
      <trkpt lat="43.3608" lon="-0.56083">
        <ele>118.860107</ele>
        <time>2012-03-02T15:13:06Z</time>
      </trkpt>
      <trkpt lat="43.35999" lon="-0.56134">
        <ele>118.860107</ele>
        <time>2012-03-02T15:13:24Z</time>
      </trkpt>
      <trkpt lat="43.35919" lon="-0.56175">
        <ele>118.860107</ele>
        <time>2012-03-02T15:13:40Z</time>
      </trkpt>
      <trkpt lat="43.35878" lon="-0.56208">
        <ele>119.34082</ele>
        <time>2012-03-02T15:13:50Z</time>
      </trkpt>
      <trkpt lat="43.3585" lon="-0.5624">
        <ele>119.821411</ele>
        <time>2012-03-02T15:14:00Z</time>
      </trkpt>
      <trkpt lat="43.35835" lon="-0.56296">
        <ele>118.860107</ele>
        <time>2012-03-02T15:14:10Z</time>
      </trkpt>
      <trkpt lat="43.3583" lon="-0.56327">
        <ele>119.34082</ele>
        <time>2012-03-02T15:14:15Z</time>
      </trkpt>
      <trkpt lat="43.35824" lon="-0.56381">
        <ele>119.34082</ele>
        <time>2012-03-02T15:14:22Z</time>
      </trkpt>
      <trkpt lat="43.35823" lon="-0.56408">
        <ele>118.860107</ele>
        <time>2012-03-02T15:14:26Z</time>
      </trkpt>
      <trkpt lat="43.3582" lon="-0.56429">
        <ele>118.860107</ele>
        <time>2012-03-02T15:14:30Z</time>
      </trkpt>
      <trkpt lat="43.35813" lon="-0.56439">
        <ele>117.898804</ele>
        <time>2012-03-02T15:14:39Z</time>
      </trkpt>
      <trkpt lat="43.35814" lon="-0.56439">
        <ele>117.418213</ele>
        <time>2012-03-02T15:14:56Z</time>
      </trkpt>
      <trkpt lat="43.35815" lon="-0.56442">
        <ele>116.456787</ele>
        <time>2012-03-02T15:15:11Z</time>
      </trkpt>
    </trkseg>
  </trk>
</gpx>